> The Twenty-Ninth Presentation > Registration & Results > Results > 2010 5K Overall

2010 5K Overall

Place Name Location Bib Net Time Pace Division/Place Sex-Age Sex-Place Gun Time Age Grade
1 Sergio Reyes Los Osos, CA 9058 14:40 4:44 M 25-29/1 M-28 1 14:40 88.15%
2 Austin Ramos , 10610 14:56 4:49 M 25-29/2 M-25 2 14:56 86.38%
3 Neville Davey Palo Alto, CA 9160 15:26 4:58 M 35-39/1 M-35 3 15:26 85.70%
4 Kevin Pool Folsom, CA 9036 15:37 5:02 M 25-29/3 M-27 4 15:37 82.78%
5 David Yu Berkeley, CA 9161 15:43 5:04 M 19-24/2 M-22 5 15:45 82.17%
6 Martin Hernandez Templeton, CA 9114 15:44 5:04 M 19-24/1 M-23 6 15:44 82.17%
7 Jin Daikoku San Francisco, CA 9076 15:45 5:05 M 25-29/4 M-26 7 15:47 81.99%
8 Kevin Pierpoint Palo Alto, CA 9196 15:47 5:05 M 30-34/1 M-34 8 15:48 83.19%
9 Harlan Lopez Walnut Creek, CA 10220 15:57 5:08 M 19-24/3 M-24 9 15:58 80.96%
10 Aaron Dilts Applegate, CA 9199 16:10 5:13 M 19-24/4 M-23 10 16:11 79.88%
11 Chris Knorzer Rocklin, CA 9023 16:11 5:13 M 40-44/1 M-41 11 16:11 85.23%
12 Nick Shea Walnut Creek, CA 10126 16:18 5:15 M 19-24/5 M-22 12 16:20 79.22%
13 Erik Mencarini Sacramento, CA 9033 16:26 5:18 M 30-34/2 M-30 13 16:28 78.78%
14 Brett Carter Palo Alto, CA 9091 16:27 5:18 M 25-29/5 M-25 14 16:29 78.50%
15 Andrew Timmins Vacaville, CA 9158 16:29 5:19 M 25-29/6 M-25 15 16:31 78.26%
16 Jack Wallace Richmond, CA 9010 16:37 5:21 M 19-24/6 M-20 16 16:39 78.51%
17 Christopher Schille Cupertino, CA 9119 16:40 5:22 M 40-44/2 M-43 17 16:40 84.05%
18 Clara Peterson San Anslemo, CA 9167 16:49 5:25 F 25-29/1 F-26 1 16:49 88.27%
19 Jeff Mann Reno, NV 9018 16:51 5:26 M 45-49/1 M-46 18 16:51 85.02%
20 Chikara Omine San Francisco, CA 9166 16:51 5:26 M 25-29/7 M-27 19 16:54 76.63%
21 Robert Grove Folsom, CA 9118 16:56 5:27 M 40-44/3 M-42 20 16:58 81.87%
22 Jason Lee San Francisco, CA 9165 16:57 5:28 M 30-34/3 M-34 21 16:58 77.46%
23 Scott Bang Campbell, CA 9168 17:05 5:30 M 40-44/4 M-42 22 17:07 81.15%
24 Linda Somers Smith Arroyo Grande, CA 9092 17:05 5:30 F 45-49/1 F-48 2 17:05 96.97%
25 Dwight Smith Seaside, CA 9015 17:07 5:31 M 50-54/1 M-51 23 17:09 86.94%
26 Timothy Wallen San Francisco, CA 9155 17:21 5:35 M 45-49/2 M-46 24 17:22 82.40%
27 Tim O'Rourke Fairfax, CA 9042 17:21 5:36 M 50-54/2 M-52 25 17:23 86.44%
28 Cliff Lentz Brisbane, CA 9131 17:30 5:38 M 45-49/3 M-45 26 17:31 81.12%
29 Jeff Hongo Campbell, CA 9113 17:33 5:39 M 40-44/5 M-44 27 17:35 80.23%
30 Dombroski George Greenbrae, CA 9154 17:37 5:41 M 40-44/6 M-41 28 17:41 78.13%
31 Daniel Shore Mill Valley, CA 9062 17:45 5:43 M 40-44/7 M-41 29 17:48 77.54%
32 Yiou Wang Mill Valley, CA 9302 17:50 5:45 F 25-29/2 F-25 3 17:50 83.22%
33 Brian Davis Livermore, CA 9055 17:52 5:45 M 50-54/3 M-54 30 17:53 85.34%
34 Thom Trimble Concord, CA 9035 17:58 5:47 M 50-54/4 M-50 31 18:01 82.17%
35 Nicole Campbell Sunnyvale, CA 9056 18:01 5:48 F 25-29/3 F-27 4 18:01 82.37%
36 Richard Cordes Alamo, CA 9151 18:02 5:49 M 45-49/4 M-49 32 18:05 81.22%
37 Fletcher Lesley San Francisco, CA 9074 18:02 5:49 M 50-54/5 M-54 33 18:05 84.55%
38 Ashley Carroll Menlo Park, CA 9027 18:08 5:50 F 25-29/4 F-27 5 18:08 81.84%
39 Doug Steedman San Francisco, CA 9073 18:08 5:51 M 50-54/6 M-54 34 18:12 84.08%
40 Tom O'Reilly Novato, CA 9079 18:13 5:52 M 50-54/7 M-53 35 18:16 83.06%
41 Tom Bernhard Castro Valley, CA 9013 18:17 5:53 M 55-59/1 M-58 36 18:20 86.31%
42 Laura Petrillo San Francisco, CA 9067 18:20 5:54 F 25-29/5 F-27 6 18:22 80.80%
43 Jedidiah Soliz Carmichael, CA 9121 18:21 5:55 M 25-29/8 M-27 37 18:22 70.36%
44 Kierann Smith Stanford, CA 9009 18:26 5:56 F 25-29/6 F-26 7 18:28 80.36%
45 Jennifer Derego Sn Luis Obisp, CA 9162 18:26 5:56 F 30-34/1 F-30 8 18:29 80.36%
46 Tim Souza San Jose, CA 9047 18:30 5:58 M 50-54/8 M-50 38 18:33 79.80%
47 Jose Aispuro Freedom, CA 9020 18:31 5:58 M 45-49/5 M-48 39 18:32 78.47%
48 Joe Wehrheim San Francisco, CA 9001 18:32 5:58 M 35-39/2 M-38 40 18:34 72.64%
49 Liz Gottlieb San Rafael, CA 9128 18:33 5:58 F 30-34/2 F-34 9 18:35 80.40%
50 Magdalena Visser San Francisco, CA 9024 18:33 5:59 F 40-44/1 F-41 10 18:33 83.50%
51 Ian Macleod Albany, CA 9037 18:38 6:00 M 50-54/9 M-50 41 18:40 79.23%
52 Lisbet Sunshine San Francisco, CA 9083 18:41 6:01 F 45-49/2 F-46 11 18:41 86.66%
53 Michael Maguire Pleasanton, CA 9145 18:42 6:01 M 45-49/6 M-47 42 18:45 77.07%
54 Mike Smith Castro Valley, CA 9307 18:42 6:02 M 45-49/7 M-45 43 18:45 75.91%
55 Gabriel McKinsey San Francisco, CA 9710 18:53 6:05 M 19-24/7 M-24 44 19:36 68.37%
56 Thomas O'Connor Pleasanton, CA 9080 18:55 6:06 M 50-54/10 M-54 45 18:58 80.60%
57 James Tiffany Marina, CA 10249 19:00 6:07 M 55-59/2 M-55 46 19:06 80.95%
58 Alan Dehlinger Reno, NV 9164 19:02 6:08 M 45-49/8 M-49 47 19:04 76.95%
59 Geovanni Oseguera Seaside, CA 10231 19:04 6:09 M 15-18/1 M-17 48 19:10 70.87%
60 Cristian Morinico Sacramento, CA 9159 19:08 6:10 M 19-24/8 M-22 49 19:09 67.48%
61 Zack Hedling San Francisco, CA 9123 19:08 6:10 M 30-34/4 M-34 50 19:10 68.61%
62 Lynn Walker Ben Lomond, CA 9065 19:11 6:11 M 50-54/11 M-53 51 19:11 78.87%
63 Ricky Solis Salinas, CA 9566 19:14 6:12 M 15-18/2 M-15 52 19:21 72.42%
64 Madeline Kieselhorst San Francisco, CA 9130 19:15 6:12 F 19-24/1 F-23 12 19:17 76.95%
65 Shannon Cody Redwood City, CA 9156 19:17 6:13 F 40-44/2 F-40 13 19:20 79.58%
66 Silver Lumsdaine San Anselmo, CA 9016 19:18 6:13 F 40-44/3 F-40 14 19:21 79.52%
67 Benjamin Switala Belmont, CA 9917 19:19 6:13 M 19-24/9 M-22 53 19:29 66.84%
68 David Woodruff Cupertino, CA 9093 19:22 6:14 M 50-54/12 M-52 54 19:25 77.43%
69 Becki Kriege San Jose, CA 9031 19:23 6:15 F 40-44/4 F-43 15 19:26 80.98%
70 Alex Olson Marina, CA 9103 19:23 6:15 M 19-24/10 M-24 55 19:25 66.61%
71 Don Porteous Alameda, CA 9039 19:28 6:16 M 60-64/1 M-63 56 19:30 84.66%
72 Sarah Tabbutt Mill Valley, CA 9061 19:33 6:18 F 50-54/1 F-50 16 19:36 86.60%
73 James Dunn Marina, CA 9101 19:33 6:18 M 15-18/3 M-18 57 19:35 68.26%
74 Nancy Thomas San Francisco, CA 9030 19:40 6:20 F 40-44/5 F-40 17 19:46 78.03%
75 Jim Bordoni Los Altos, CA 9087 19:41 6:21 M 55-59/3 M-57 58 19:45 79.49%
76 Jim Hartig Avila Beach, CA 9019 19:43 6:21 M 55-59/4 M-55 59 19:46 78.00%
77 Donald Ball Claremont, CA 10097 19:44 6:21 M 35-39/3 M-39 60 19:52 68.72%
78 Suzanne Segesta Redwood City, CA 9070 19:46 6:22 F 35-39/1 F-39 18 19:49 77.13%
79 Thomas Melton Seaside, CA 10105 19:46 6:22 M 30-34/5 M-32 61 19:52 65.82%
80 Richard Kitson Del Rey Oaks, CA 10087 19:46 6:22 M 45-49/9 M-46 62 19:54 72.32%
81 John Yamagata Sacramento, CA 9146 19:48 6:23 M 60-64/2 M-60 63 19:52 81.04%
82 Melissa Sudan Saratoga, CA 9054 19:49 6:23 F 40-44/6 F-40 19 19:52 77.44%
83 Arturo Rodriguez Santa Cruz, CA 9122 19:54 6:25 M 60-64/3 M-60 64 19:56 80.64%
84 Michelle Flenniken Oakland, CA 9034 19:58 6:26 F 30-34/3 F-34 20 20:02 74.69%
85 David Ripp San Rafael, CA 9134 19:58 6:26 M 55-59/5 M-58 65 20:01 79.03%
86 Stephanie Davey Palo Alto, CA 9051 20:00 6:27 F 30-34/4 F-31 21 20:04 74.15%
87 Tara Carter San Francisco, CA 9153 20:01 6:27 F 30-34/5 F-33 22 20:06 74.33%
88 William Dunn Sunnyvale, CA 9029 20:02 6:27 M 60-64/4 M-62 66 20:05 81.52%
89 Jennifer Rubio Los Osos, CA 10167 20:08 6:29 F 40-44/7 F-41 23 20:12 76.72%
90 Dave Covey Mill Valley, CA 9169 20:09 6:29 M 45-49/10 M-48 67 20:12 72.10%
91 Will Allan Martinez, CA 10139 20:10 6:30 M 35-39/4 M-35 68 20:14 65.43%
92 Neil Gelblum Cupertino, CA 9117 20:11 6:30 M 55-59/6 M-58 69 20:15 78.18%
93 Bill Neer San Anselmo, CA 9139 20:12 6:30 M 50-54/13 M-51 70 20:14 73.66%
94 Patti Shore Mill Valley, CA 9059 20:16 6:32 F 40-44/8 F-43 24 20:19 77.45%
95 Glenn Martinson Sunnyvale, CA 9096 20:17 6:32 M 40-44/8 M-42 71 20:22 68.34%
96 Karen Jeffers Wheatland, CA 9973 20:18 6:32 F 45-49/3 F-47 25 20:20 80.44%
97 Theresa Keegan Mountain View, CA 9142 20:20 6:33 F 35-39/2 F-36 26 20:25 73.91%
98 Beth Freedman San Anselmo, CA 9140 20:21 6:33 F 40-44/9 F-41 27 20:24 75.90%
99 Marisa Beck San Jose, CA 9060 20:22 6:34 F 30-34/6 F-32 28 20:26 72.89%
100 Brent Hunter Prunedale, CA 10148 20:26 6:35 M 12-14/1 M-13 72 20:33 71.02%
Place Name Location Bib Net Time Pace Division/Place Sex-Age Sex-Place Gun Time Age Grade
101 Alejandro Espinoza Salinas, CA 9567 20:35 6:38 M 15-18/4 M-15 73 20:42 67.67%
102 Tyler Abbott , 9303 20:35 6:38 M 45-49/11 M-49 74 20:35 71.15%
103 Perry Hayden Reno, NV 9163 20:37 6:38 M 65-69/1 M-65 75 20:40 81.39%
104 Hans Schmid Greenbrae, CA 9089 20:37 6:39 M 70-74/1 M-70 76 20:41 85.60%
105 Darren Mah Sand City, CA 10079 20:48 6:42 M 35-39/5 M-35 77 20:56 63.43%
106 Ron Kiyono Union City, CA 9147 20:50 6:43 M 60-64/5 M-61 78 20:54 77.74%
107 Shonan Wu Dublin, CA 10216 20:52 6:43 M 25-29/9 M-25 79 21:03 61.87%
108 Suzanne Cordes Alamo, CA 9069 20:52 6:43 F 50-54/2 F-50 29 20:56 81.14%
109 Franklin Ruona Novato, CA 9082 20:52 6:43 M 60-64/6 M-64 80 20:55 79.70%
110 Glorybelle Lillie Turlock, CA 9084 20:58 6:45 F 40-44/10 F-40 30 21:03 73.19%
111 Michael Singleton Modesto, CA 10145 21:06 6:48 M 40-44/9 M-40 81 21:11 64.74%
112 Elizabeth Wistrom Healdsburg, CA 9086 21:08 6:48 F 30-34/7 F-32 31 21:12 70.24%
113 Ryan Gromer Monterey, CA 10207 21:14 6:50 M 35-39/6 M-35 82 21:21 62.14%
114 Laura Meadors San Francisco, CA 9053 21:14 6:51 F 30-34/8 F-32 32 21:19 69.86%
115 Giles Goodwin San Francisco, CA 9623 21:15 6:51 M 35-39/7 M-35 83 21:24 62.09%
116 Tammy Davenport Mountain View, CA 9143 21:15 6:51 F 40-44/11 F-42 33 21:19 73.23%
117 Meredith Mills Aptos, CA 9032 21:15 6:51 F 50-54/3 F-52 34 21:19 81.71%
118 Ashley Grosse Menlo Park, CA 9057 21:20 6:52 F 40-44/12 F-41 35 21:26 72.40%
119 Igor Geller San Mateo, CA 9919 21:20 6:52 M 25-29/10 M-25 84 21:30 60.52%
120 Mary Vidovich Los Gatos, CA 9025 21:27 6:55 F 45-49/4 F-45 36 21:31 74.49%
121 Emily Clark Fort Collins, CO 10089 21:28 6:55 F 35-39/3 F-35 37 21:39 69.70%
122 Angela Hernandez Watsonville, CA 9021 21:30 6:55 F 35-39/4 F-37 38 21:33 70.21%
123 Wesley Tucker Seaside, CA 10099 21:34 6:57 M 19-24/11 M-20 85 21:50 60.48%
124 Shannon Salyer Carmel, CA 10009 21:35 6:57 F 30-34/9 F-33 39 21:35 68.93%
125 Michael Plummer Castro Valley, CA 9099 21:35 6:57 M 50-54/14 M-51 86 21:40 68.93%
126 Marian Richard Cupertino, CA 9112 21:39 6:58 F 50-54/4 F-50 40 21:43 78.20%
127 Andrew Appleton Menlo Park, CA 9976 21:41 6:59 M 45-49/12 M-48 87 21:49 67.00%
128 Ellen Wallace Sunnyvale, CA 9095 21:44 7:00 F 40-44/13 F-43 41 21:49 72.22%
129 Tyler Larson Carmel Valley, CA 9655 21:48 7:01 M 19-24/12 M-20 88 21:50 59.83%
130 Rod Mackinlay Pebble Beach, CA 9000 21:49 7:02 M 70-74/2 M-70 89 21:53 80.89%
131 Mimi Willard Kentfield, CA 9137 21:52 7:03 F 55-59/1 F-56 42 21:56 83.68%
132 Woodrow Ameser Costa Mesa, CA 9801 22:06 7:07 M 19-24/13 M-19 90 22:48 59.70%
133 Krista Sornborger Marina, CA 9108 22:10 7:08 F 19-24/2 F-19 43 22:12 67.04%
134 Shelagh Sayers San Francisco, CA 9068 22:10 7:08 F 45-49/5 F-46 44 22:15 72.84%
135 Michelle Holmes Felton, CA 9063 22:13 7:09 F 35-39/5 F-39 45 22:17 68.62%
136 Chris Larson Carmel Valley, CA 9654 22:14 7:10 M 50-54/15 M-54 91 22:18 68.57%
137 Lane Patterson Hays, KS 9960 22:19 7:11 M 19-24/14 M-24 92 22:26 57.85%
138 Joe Hurtado Sunnyvale, CA 9090 22:23 7:13 M 65-69/2 M-69 93 22:27 77.94%
139 David Cortez Salinas, CA 9125 22:28 7:14 M 65-69/3 M-65 94 22:31 74.68%
140 Barbara Wismer San Francisco, CA 9050 22:32 7:16 F 45-49/6 F-49 46 22:38 74.24%
141 Glenn Kishi San Jose, CA 9081 22:37 7:17 M 45-49/13 M-48 95 22:41 64.23%
142 Mackenzie Morgan Marina, CA 9106 22:47 7:20 F 15-18/1 F-18 47 22:50 65.74%
143 Nicole Arboleda San Francisco, CA 10242 22:50 7:21 F 19-24/3 F-24 48 22:58 64.86%
144 Allan Stanbridge Burlingame, CA 9022 22:51 7:22 M 60-64/7 M-63 96 22:54 72.12%
145 Kari Zaro Marina, CA 9111 22:54 7:23 F 19-24/4 F-20 49 22:56 64.68%
146 Lisa Watts Greenbrae, CA 9172 22:54 7:23 F 45-49/7 F-47 50 22:58 71.30%
147 Hayley Tharp Marina, CA 9109 22:56 7:23 F 19-24/5 F-20 51 22:58 64.58%
148 William Brusher Oakland, CA 9157 22:58 7:24 M 55-59/7 M-58 97 23:01 68.70%
149 Marie Beard Marina, CA 9105 23:01 7:25 F 19-24/6 F-20 52 23:04 64.35%
150 Rafael Manzo Salinas, CA 9648 23:10 7:28 M 30-34/6 M-33 98 23:26 56.37%
151 Kenneth Warde Pacific Grove, CA 9124 23:13 7:29 M 60-64/8 M-60 99 23:17 69.11%
152 Lou Dadok Los Altos, CA 9528 23:14 7:29 M 50-54/16 M-52 100 23:24 64.54%
153 Christopher Dadok Los Altos, CA 9527 23:15 7:29 M 08-11/1 M-10 101 23:22 67.93%
154 Lyn Johnson Santa Cruz, CA 9005 23:17 7:30 F 40-44/14 F-44 53 23:21 67.98%
155 Carl Petersen Sunnyvale, CA 9041 23:17 7:30 M 70-74/3 M-72 102 23:22 77.72%
156 Jeffrey Kuo San Francisco, CA 10266 23:19 7:31 M 30-34/7 M-34 103 23:34 56.29%
157 Morgan Edwards Monterey, CA 9949 23:21 7:31 M 25-29/11 M-28 104 23:32 55.29%
158 Donna Chan San Francisco, CA 9014 23:21 7:31 F 55-59/2 F-59 54 23:26 81.64%
159 Zack Young Carmel, CA 9689 23:26 7:33 M 19-24/15 M-19 105 23:34 56.30%
160 Evan Askar Ventura, CA 10024 23:30 7:34 M 12-14/2 M-13 106 23:37 61.75%
161 Dave Ahn Sunnyvale, CA 9116 23:30 7:34 M 55-59/8 M-57 107 23:36 66.57%
162 Shanarae Goodwin San Francisco, CA 9622 23:32 7:35 F 35-39/6 F-36 55 23:41 63.86%
163 Sarah Lino Carmel Valley, CA 10699 23:37 7:37 F 15-18/2 F-15 56 23:45 65.68%
164 John Kane Watsonville, CA 10132 23:38 7:37 M 55-59/9 M-56 108 23:44 65.63%
165 Andrew Swedberg Pacific Grove, CA 10108 23:39 7:37 M 30-34/8 M-31 109 23:57 54.87%
166 Mihaela Plummer Castro Valley, CA 9100 23:41 7:38 F 40-44/15 F-40 57 23:45 64.79%
167 Marie Appel San Mateo, CA 9301 23:46 7:39 F 45-49/8 F-45 58 23:53 67.23%
168 Jo Anne Rowland Concord, CA 9002 23:47 7:39 F 60-64/1 F-62 59 23:52 83.73%
169 Camille Sierra Marina, CA 9107 23:54 7:42 F 19-24/7 F-20 60 23:56 61.97%
170 Liliana Perdomo Pleasanton, CA 9541 23:55 7:42 F 35-39/7 F-35 61 24:02 62.55%
171 Cori Rosenberg Carmel, CA 10030 23:57 7:43 F 30-34/10 F-34 62 24:05 62.26%
172 Jordan Santibanez Greenfield, CA 10032 24:02 7:44 M 12-14/3 M-14 110 24:12 59.06%
173 Victor De Loza San Jose, CA 10268 24:06 7:46 M 25-29/12 M-26 111 24:24 53.56%
174 Antonia McGowan San Ramon, CA 9631 24:09 7:47 F 40-44/16 F-41 63 24:09 63.95%
175 Blake Hiebner Arroyo Grande, CA 9980 24:10 7:47 M 15-18/5 M-15 112 24:25 57.63%
176 Marissa Aguilar Marina, CA 9104 24:11 7:47 F 19-24/8 F-20 64 24:14 61.24%
177 Mary Lothrop Concord, CA 9038 24:13 7:48 F 45-49/9 F-48 65 24:18 68.25%
178 Tricia Wallace Corte Madera, CA 9141 24:18 7:50 F 50-54/5 F-51 66 24:23 70.56%
179 Carol Bednar Sunnyvale, CA 9078 24:27 7:53 F 40-44/17 F-42 67 24:32 63.64%
180 Sachi Desai Franklin, NJ 9876 24:34 7:55 M 25-29/13 M-29 113 24:46 52.61%
181 Adrian Perez Greenfield, CA 9948 24:36 7:55 M 12-14/4 M-12 114 24:46 60.47%
182 Marc Lieberman Monterey, CA 9769 24:37 7:56 M 60-64/9 M-63 115 24:40 66.94%
183 Melinda Morse San Ramon, CA 9028 24:38 7:56 F 55-59/3 F-58 68 24:43 76.37%
184 Ben Weber Carmel, CA 10159 24:38 7:56 M 08-11/2 M-11 116 24:46 62.15%
185 Marc Takahashi Pebble Beach, CA 10166 24:39 7:56 M 45-49/14 M-48 117 24:47 58.93%
186 Francisco Gonzalez Seaside, CA 10158 24:40 7:57 M 12-14/5 M-12 118 24:47 60.31%
187 Silverio Juarez Seaside, CA 10233 24:50 8:00 M 25-29/14 M-25 119 25:00 51.98%
188 Bernie Hollander Novato, CA 9129 24:52 8:00 M 70-74/4 M-74 120 24:55 74.98%
189 Javier Oseguera Seaside, CA 10232 24:53 8:01 M 35-39/8 M-39 121 25:02 54.49%
190 Katherine Clifford Palo Alto, CA 10164 25:03 8:04 F 45-49/10 F-45 69 25:13 63.78%
191 Danielle Goulart Fresno, CA 10607 25:04 8:04 F 15-18/3 F-17 70 25:10 60.35%
192 Italo Toselli Monterey, CA 10096 25:07 8:05 M 30-34/9 M-34 122 25:56 52.26%
193 Erin Chiaputti Missoula, MT 10082 25:07 8:06 F 19-24/9 F-24 71 25:40 58.96%
194 Paul Frawley Monterey, CA 9885 25:13 8:07 M 30-34/10 M-34 123 26:12 52.05%
195 Bill Dodson Mountain View, CA 9085 25:18 8:09 M 75-79/1 M-75 124 25:22 74.95%
196 David Leyva Gonzales, CA 10117 25:19 8:09 M 15-18/6 M-18 125 25:30 52.70%
197 Kai Jarmon Los Altos, CA 9678 25:20 8:09 M 08-11/3 M-11 126 25:26 60.43%
198 Julios Ratti Oakland, CA 9150 25:20 8:10 M 55-59/10 M-59 127 25:26 62.80%
199 Jenna Ryan San Jose, CA 11410 25:20 8:10 F 19-24/10 F-19 72 25:30 58.66%
200 Jordan Desilva Pacific Grove, CA 10102 25:22 8:10 M 25-29/15 M-28 128 25:32 50.89%
Place Name Location Bib Net Time Pace Division/Place Sex-Age Sex-Place Gun Time Age Grade
201 Dianne Anderson Danville, CA 9052 25:23 8:11 F 60-64/2 F-64 73 25:29 80.81%
202 Victoria Kros San Jose, CA 9972 25:31 8:13 F 60-64/3 F-61 74 25:37 76.86%
203 Irene Herman San Francisco, CA 9026 25:33 8:14 F 60-64/4 F-60 75 25:39 75.72%
204 Eric Hendricks Monterey, CA 9995 25:35 8:15 M 30-34/11 M-34 129 25:58 51.30%
205 Hillary Lundblad Linden, CA 9611 25:37 8:15 F 19-24/11 F-21 76 25:51 57.81%
206 David Davenport Neptune Beach, FL 9152 25:38 8:15 M 45-49/15 M-49 130 25:46 57.12%
207 Leslie McLachlan Louisville, CO 10071 25:42 8:17 F 35-39/8 F-39 77 25:53 59.31%
208 Bob Cowdrey San Mateo, CA 9097 25:45 8:18 M 65-69/4 M-65 131 25:49 65.16%
209 Kelly Mollner Salinas, CA 10048 25:47 8:18 F 30-34/11 F-30 78 26:11 57.44%
210 Emily Schoenwald Pacific Grove, CA 10141 25:56 8:21 F 50-54/6 F-51 79 26:16 66.11%
211 Lucas Melac Pacific Grove, CA 10066 25:58 8:22 M 08-11/4 M-10 132 26:05 60.82%
212 Jonas Iggbom Oakland, CA 10109 26:01 8:23 M 30-34/12 M-30 133 26:36 49.74%
213 Claire Blocker Sacramento, CA 9797 26:03 8:23 F 25-29/7 F-28 80 26:12 56.85%
214 Nelly Wright Pacific Grove, CA 9133 26:04 8:24 F 60-64/5 F-64 81 26:09 78.69%
215 Abbey Stauffer Oakland, CA 10110 26:10 8:26 F 25-29/8 F-27 82 26:44 56.60%
216 Desiree Pettas Del Rey Oaks, CA 10085 26:17 8:28 F 35-39/9 F-37 83 26:29 57.42%
217 Chloe Appleton Menlo Park, CA 10128 26:18 8:28 F 15-18/4 F-16 84 26:27 58.21%
218 Andrew Lino Carmel Valley, CA 10698 26:21 8:29 M 45-49/16 M-45 134 26:29 53.86%
219 Grace Lino Carmel Valley, CA 10700 26:21 8:29 F 08-11/1 F-8 85 26:29 68.80%
220 Rachel Ameser Costa Mesa, CA 9798 26:26 8:31 F 25-29/9 F-27 86 27:10 56.03%
221 Nelda Williams San Francisco, CA 9044 26:32 8:33 F 60-64/6 F-61 87 26:38 73.92%
222 Paul Casey Corral De Tierra, CA 10093 26:38 8:35 M 50-54/17 M-50 135 26:53 55.42%
223 Edda Stickle Novato, CA 9136 26:38 8:35 F 65-69/1 F-68 88 26:43 81.91%
224 Carla Damron Monroe, WA 10165 26:43 8:36 F 25-29/10 F-25 89 26:50 55.43%
225 Anicka Chaffey Monterey, CA 9997 26:46 8:37 F 15-18/5 F-16 90 26:57 57.20%
226 Nate Newcombe Spanish Springs, NV 9574 26:46 8:37 M 08-11/5 M-9 136 26:56 61.12%
227 Mary Massee Sunnyvale, CA 9072 26:49 8:38 F 50-54/7 F-53 91 26:55 65.61%
228 Jocelyn Noonan San Jose, CA 9883 26:58 8:41 F 19-24/12 F-24 92 27:19 54.92%
229 Stefanie Zenk Salinas, CA 10010 27:01 8:42 F 35-39/10 F-36 93 27:08 55.62%
230 Lee Jackson San Antonio, TX 9749 27:02 8:43 M 45-49/17 M-47 137 27:19 53.30%
231 Rebecca Contreras Seaside, CA 9982 27:03 8:43 F 35-39/11 F-39 94 27:12 56.35%
232 Devin Kile Gonzales, CA 9544 27:05 8:43 M 25-29/16 M-26 138 27:32 47.66%
233 Jim Kourkoulakos Sacramento, CA 9894 27:07 8:44 M 40-44/10 M-43 139 27:29 51.54%
234 Carl Battiste San Ramon, CA 10095 27:08 8:44 M 08-11/6 M-11 140 27:08 56.42%
235 Cindy Battiste San Ramon, CA 9967 27:08 8:44 F 45-49/11 F-47 95 27:08 60.17%
236 Nicole McGowan San Ramon, CA 9632 27:08 8:44 F 08-11/2 F-9 96 27:08 64.72%
237 Saki Evans Monterey, CA 10077 27:08 8:44 F 45-49/12 F-49 97 27:15 61.65%
238 Luis Mares Rch Cucamonga, CA 10275 27:09 8:45 M 25-29/17 M-27 141 27:29 47.54%
239 Mark Eccles Carmel, CA 10252 27:09 8:45 M 45-49/18 M-48 142 27:15 53.50%
240 Aaron Yant Newbury Park, CA 9537 27:13 8:46 M 08-11/7 M-10 143 27:37 58.03%
241 Scott Denny Santa Cruz, CA 9857 27:16 8:47 M 35-39/9 M-39 144 27:38 49.72%
242 Daniel Hicklin Monterey, CA 10119 27:17 8:47 M 25-29/18 M-28 145 27:46 47.31%
243 Marisa Burns Salinas, CA 10214 27:17 8:47 F 12-14/1 F-12 98 27:28 59.72%
244 Katrina Hubbard Monterey, CA 9843 27:22 8:49 F 19-24/13 F-23 99 27:41 54.11%
245 Christopher Divens Seaside, CA 10004 27:22 8:49 M 40-44/11 M-41 146 27:49 50.27%
246 Elise Hubbard Monterey, CA 9842 27:23 8:49 F 19-24/14 F-23 100 27:41 54.08%
247 Nathan Ruiz Monterey, CA 10056 27:24 8:49 M 25-29/19 M-27 147 27:43 47.11%
248 Lynette Ruiz Monterey, CA 10057 27:24 8:49 F 25-29/11 F-27 101 27:43 54.05%
249 Patricia Manzo Hollister, CA 9640 27:26 8:50 F 30-34/12 F-30 102 27:44 53.98%
250 Dawn Patterson Auburn, CA 11502 27:26 8:50 F 35-39/12 F-37 103 28:16 55.02%
251 Francine Huck Pacific Grove, CA 9891 27:29 8:51 F 30-34/13 F-31 104 27:37 53.94%
252 Maria Lopez Carmel Valley, CA 9742 27:30 8:51 F 40-44/18 F-41 105 28:10 56.16%
253 David Arnold Vallejo, CA 9937 27:31 8:52 M 50-54/18 M-50 148 27:54 53.64%
254 Nathan Field Santa Barbara, CA 10697 27:40 8:55 M 30-34/13 M-31 149 28:27 46.90%
255 Amanda Pikman Suisun City, CA 9775 27:40 8:55 F 19-24/15 F-23 106 28:00 53.53%
256 Karen Neese Santa Barbara, CA 10684 27:40 8:55 F 25-29/12 F-27 107 28:27 53.53%
257 Joel Henriquez Seaside, CA 9983 27:41 8:55 M 12-14/6 M-13 150 27:49 52.41%
258 Chris Myers Monterey, CA 10086 27:46 8:57 M 60-64/10 M-60 151 28:01 57.78%
259 Andrew Miles Aurora, CO 11688 27:46 8:57 M 30-34/14 M-32 152 29:08 46.85%
260 Daniel Desmond Oakland, CA 11707 27:46 8:57 M 30-34/15 M-32 153 29:08 46.85%
261 Todd Muchmore Marina, CA 9708 27:49 8:57 M 30-34/16 M-34 154 28:08 47.18%
262 Michelle Hershberger Canton, MI 9740 27:59 9:01 F 30-34/14 F-33 108 28:18 53.16%
263 Jensen Kile Sacramento, CA 9552 27:59 9:01 M 25-29/20 M-25 155 28:26 46.13%
264 Bart Egnal Vancouver, BC 10269 28:00 9:01 M 30-34/17 M-30 156 28:53 46.22%
265 Michele Friedrich Salinas, CA 10008 28:01 9:01 F 35-39/13 F-38 109 28:09 54.11%
266 Gladys Samayoa Marina, CA 10137 28:04 9:02 F 19-24/16 F-20 110 28:33 52.76%
267 Xi Xu San Francisco, CA 9618 28:07 9:03 F 19-24/17 F-24 111 28:21 52.67%
268 Matthew Spiegl Salinas, CA 10199 28:11 9:05 M 50-54/19 M-51 157 28:18 52.78%
269 Joey Verhoeven BEL, 9551 28:12 9:05 M 30-34/18 M-31 158 28:19 46.01%
270 Shay Lyon Carmel Valley, CA 10112 28:15 9:06 M 08-11/8 M-11 159 28:24 54.19%
271 Mohsin Barra Hollister, CA 9832 28:16 9:06 M 25-29/21 M-25 160 28:57 45.66%
272 Nina Hodgson Monterey, CA 9766 28:18 9:07 F 08-11/3 F-10 112 28:39 60.34%
273 Shauna Pate Pebble Beach, CA 9776 28:21 9:08 F 35-39/14 F-36 113 28:30 53.00%
274 Maria Olguin-Leon Union City, CA 10016 28:21 9:08 F 40-44/19 F-41 114 28:47 54.47%
275 Danielle Hodgkins Seaside, CA 10133 28:22 9:08 F 25-29/13 F-29 115 28:39 52.20%
276 Robin Green Galloway, OH 9878 28:27 9:10 F 55-59/4 F-55 116 28:38 63.48%
277 Avery Blanco Marina, CA 10186 28:30 9:11 F 08-11/4 F-10 117 28:59 59.92%
278 Amanda Melton Seaside, CA 10101 28:30 9:11 F 30-34/15 F-30 118 28:36 51.96%
279 Eric Schwartz Salinas, CA 9952 28:32 9:12 M 15-18/7 M-16 161 28:42 48.04%
280 Grazyna Dudney Salinas, CA 9660 28:40 9:14 F 50-54/8 F-52 119 28:57 60.56%
281 Joe Prang Los Gatos, CA 9871 28:42 9:14 M 55-59/11 M-55 162 28:51 53.57%
282 Paul Portschy Gonzales, CA 9966 28:42 9:14 M 12-14/7 M-14 163 29:00 49.45%
283 Frank Portschy Gonzales, CA 9965 28:42 9:15 M 45-49/19 M-45 164 29:00 49.45%
284 Judy Dow Monterey, CA 10011 28:44 9:15 F 60-64/7 F-63 120 29:10 70.28%
285 Fernando Lopez Greenfield, CA 9946 28:45 9:16 M 19-24/16 M-23 165 28:55 44.90%
286 Kristi Victorino Modesto, CA 10013 28:48 9:17 F 35-39/15 F-35 121 29:13 51.94%
287 Mandee Hiebert Coeur D Alene, ID 10227 28:48 9:17 F 30-34/16 F-31 122 29:06 51.48%
288 Natalie Street Atlanta, GA 9543 28:49 9:17 F 30-34/17 F-34 123 29:40 51.74%
289 Gina Champion Cain San Diego, CA 9569 28:50 9:17 F 45-49/13 F-45 124 29:10 55.41%
290 Joseph Himmelberg San Diego, CA 9570 28:50 9:17 M 40-44/12 M-44 166 29:10 48.81%
291 Mario Schiappacasse Baltimore, MD 9651 28:50 9:17 M 25-29/22 M-26 167 29:51 44.77%
292 Colin McEachen Carmel, CA 9963 28:52 9:18 M 08-11/9 M-8 168 28:59 58.98%
293 Heidi Hall Monterey, CA 9996 28:52 9:18 F 50-54/9 F-52 125 29:04 60.14%
294 Emily Chavez Templeton, CA 10076 28:54 9:19 F 19-24/18 F-20 126 29:42 51.24%
295 Aaron Becerra Salinas, CA 10001 28:55 9:19 M 45-49/20 M-45 169 29:15 49.08%
296 Sandra Divens Seaside, CA 10003 29:02 9:21 F 40-44/20 F-41 127 29:28 53.19%
297 Rene Kanzler Wallkill, NY 10140 29:02 9:21 F 08-11/5 F-10 128 29:11 58.82%
298 Josee Belanger Aptos, CA 9715 29:03 9:21 F 45-49/14 F-48 129 29:12 56.89%
299 James Davidson Los Osos, CA 9663 29:07 9:23 M 25-29/23 M-29 170 29:18 44.39%
300 Claire Izdepski San Francisco, CA 10162 29:11 9:24 F 25-29/14 F-26 130 29:22 50.74%
Place Name Location Bib Net Time Pace Division/Place Sex-Age Sex-Place Gun Time Age Grade
301 Janet Holloway Monterey, CA 10049 29:15 9:25 F 70-74/1 F-73 131 29:23 81.13%
302 Marina Quirit Monterey, CA 9597 29:15 9:25 F 30-34/18 F-32 132 29:27 50.74%
303 Frank Migdal Pacific Grove, CA 9931 29:19 9:26 M 35-39/10 M-36 171 29:41 45.28%
304 Randall Schwartz Salinas, CA 9951 29:25 9:28 M 60-64/11 M-61 172 29:34 55.05%
305 Christine Stanbridge Burlingame, CA 9869 29:28 9:29 F 60-64/8 F-63 133 29:51 68.53%
306 Anna Dudney Salinas, CA 9659 29:28 9:29 F 19-24/19 F-22 134 29:45 50.25%
307 Elmo Shropshire Novato, CA 9115 29:32 9:31 M 70-74/5 M-73 173 29:37 62.17%
308 Diane Bordoni Los Altos, CA 9088 29:32 9:31 F 55-59/5 F-56 135 29:57 61.94%
309 Frederick Cheng Loveland, OH 10217 29:36 9:32 M 40-44/13 M-40 174 30:00 46.14%
310 Linda Prang Los Gatos, CA 9870 29:40 9:33 F 50-54/10 F-54 136 29:51 60.03%
311 Kelley Sodergren Sonoma, CA 9958 29:44 9:35 F 50-54/11 F-51 137 30:11 57.66%
312 Rodolfo Carrillo Watsonville, CA 10143 29:45 9:35 M 35-39/11 M-36 175 30:05 44.62%
313 Tim Riley Pacific Grove, CA 9045 29:47 9:36 M 65-69/5 M-65 176 29:54 56.33%
314 Brian Alfaro San Francisco, CA 9890 29:48 9:36 M 30-34/19 M-32 177 30:01 43.65%
315 Mike Strasberg Orlando, FL 10131 29:50 9:36 M 40-44/14 M-43 178 30:03 46.84%
316 Doug Foreman Maitland, FL 10130 29:50 9:37 M 40-44/15 M-43 179 30:02 46.84%
317 Sarah Radon Hollister, CA 9725 29:51 9:37 F 25-29/15 F-29 138 30:04 49.61%
318 Chris Victorino Modesto, CA 10014 29:53 9:37 M 35-39/12 M-36 180 30:18 44.42%
319 Sean O'Rourke Los Gatos, CA 9879 29:56 9:39 M 35-39/13 M-37 181 30:25 44.62%
320 Mariana Dorsey Seaside, CA 10225 30:01 9:40 F 15-18/6 F-16 139 30:08 51.00%
321 Mikayla Dorsey Seaside, CA 10224 30:02 9:40 F 15-18/7 F-18 140 30:09 49.86%
322 Deshia Hiebner Arroyo Grande, CA 9979 30:05 9:41 F 35-39/16 f-38 141 30:19 50.39%
323 Melissa Houghton San Diego, CA 10104 30:05 9:41 F 19-24/20 F-24 142 30:50 49.22%
324 Mike Silva Redding, CA 10080 30:07 9:42 M 55-59/12 M-58 182 30:22 52.38%
325 Kelly Rood Monterey, CA 10088 30:08 9:42 F 25-29/16 F-27 143 30:27 49.14%
326 Richard Huizar Sacramento, CA 10002 30:14 9:44 M 45-49/21 M-46 183 30:29 47.27%
327 Naoto Kojima Cupertino, CA 9600 30:16 9:45 M 08-11/10 M-10 184 30:39 52.18%
328 Rhiannon Saunders Salinas, CA 10218 30:17 9:45 F 19-24/21 F-20 144 30:45 48.90%
329 Suzanne Franco Oakland, CA 9048 30:17 9:45 F 65-69/2 F-68 145 30:24 72.08%
330 Brittany Prater Pacific Grove, CA 9873 30:18 9:46 F 19-24/22 F-21 146 30:57 48.87%
331 Kaitlyn Foley Pacific Grove, CA 9927 30:18 9:46 F 19-24/23 F-22 147 30:57 48.87%
332 Kay Guenther Gilroy, CA 9977 30:22 9:47 F 40-44/21 F-41 148 30:33 50.85%
333 Anna Guajardo Salinas, CA 10017 30:27 9:48 F 55-59/6 F-58 149 30:52 61.77%
334 John McEachen Carmel, CA 9964 30:28 9:49 M 45-49/22 M-46 185 30:36 46.91%
335 Alex Hogan Pacific Grove, CA 9581 30:28 9:49 F 25-29/17 F-25 150 30:53 48.60%
336 Mark Beering Salinas, CA 9994 30:28 9:49 M 35-39/14 M-36 186 30:36 43.57%
337 Karen Neville-Ponko Pacific Grove, CA 9722 30:30 9:49 F 45-49/15 F-46 151 30:41 52.93%
338 Miho Ito Salinas, CA 9603 30:31 9:50 F 40-44/22 F-42 152 31:27 50.98%
339 Vanessa Mitchener Carmel Valley, CA 9585 30:32 9:50 F 19-24/24 F-24 153 31:06 48.50%
340 Peter Pedrazzi Salinas, CA 9584 30:32 9:50 M 19-24/17 M-24 187 31:06 42.27%
341 Guy Schwartz Eagle River, AK 10176 30:41 9:53 M 19-24/18 M-19 188 31:17 42.99%
342 Heather Liston San Francisco, CA 9957 30:41 9:53 F 45-49/16 F-48 154 30:50 53.86%
343 Jason Rexing San Francisco, CA 10255 30:46 9:55 M 30-34/20 M-34 189 31:07 42.66%
344 Faye Davison San Francisco, CA 10256 30:46 9:55 F 30-34/19 F-33 155 31:08 48.35%
345 Monique Tucker Seaside, CA 10098 30:49 9:56 F 45-49/17 F-46 156 31:14 52.38%
346 James Jimenez Marina, CA 9695 30:55 9:57 M 50-54/20 M-51 190 31:11 48.11%
347 Maddalena Vitanza Salinas, CA 10149 30:57 9:58 F 19-24/25 F-19 157 31:26 48.01%
348 Maura Callanan Severna Park, MD 10118 31:00 9:59 F 45-49/18 F-48 158 31:25 53.31%
349 Jennifer Bowman San Francisco, CA 10262 31:03 10:00 F 35-39/17 F-37 159 31:44 48.60%
350 Lucas Ferrer Guaynabo, PR 9768 31:03 10:00 M 19-24/19 M-19 191 31:33 42.48%
351 Marina Vera Salinas, CA 10215 31:03 10:00 F 30-34/20 F-34 160 31:24 48.01%
352 James Arico Flanders, NJ 9961 31:04 10:00 M 55-59/13 M-59 192 31:17 51.21%
353 Jonathan Dill Salinas, CA 9774 31:06 10:01 M 19-24/20 M-21 193 31:20 41.66%
354 Scott Rogers Pacific Grove, CA 10081 31:16 10:04 M 40-44/16 M-41 194 31:16 44.00%
355 Mayra Llamas Woodland, CA 9690 31:18 10:05 F 30-34/21 F-31 161 31:30 47.36%
356 Glynn Wood Monterey, CA 10175 31:21 10:06 M 75-79/2 M-76 195 31:28 61.54%
357 Jose Manzo Los Banos, CA 9642 31:23 10:06 M 35-39/15 M-35 196 31:39 42.03%
358 Carrah Mendoza Daly City, CA 9848 31:24 10:07 F 30-34/22 F-33 162 31:53 47.37%
359 John Farmer Woodland Hills, CA 9905 31:26 10:07 M 50-54/21 M-52 197 32:20 47.69%
360 Mark Ziegenbein Lakewood, CO 10180 31:26 10:07 M 55-59/14 M-56 198 31:49 49.34%
361 Phil Phythian Mill Valley, CA 9132 31:30 10:09 M 75-79/3 M-76 199 31:35 61.25%
362 Ross Franco Oakland, CA 9049 31:30 10:09 M 70-74/6 M-71 200 31:37 56.70%
363 Stephanie Thomas Marina, CA 9582 31:31 10:09 F 19-24/26 F-24 163 31:55 46.98%
364 Julie Ahrens San Francisco, CA 9681 31:42 10:13 F 30-34/23 F-33 164 32:40 46.92%
365 Emily Neff San Jose, CA 9545 31:43 10:13 F 19-24/27 F-21 165 32:09 46.69%
366 David Askar Ventura, CA 9580 31:43 10:13 M 40-44/17 M-40 201 32:07 43.06%
367 Danielle Askar Ventura, CA 10025 31:43 10:13 F 08-11/6 F-10 166 32:07 53.84%
368 Meadow Holmes Oakland, CA 9686 31:46 10:14 F 30-34/24 F-33 167 32:44 46.82%
369 Christa Geist Anderson, CA 9602 31:54 10:16 F 19-24/28 F-23 168 32:21 46.42%
370 Sheri Williams Bakersfield, CA 10234 31:54 10:16 F 45-49/19 F-48 169 32:04 51.80%
371 Julie Lundblad Linden, CA 9610 31:55 10:17 F 45-49/20 F-49 170 32:10 52.40%
372 Briana Cadman Marina, CA 10042 31:57 10:17 F 19-24/29 F-21 171 32:24 46.35%
373 Ed Reyna Sunnyvale, CA 9064 31:59 10:18 M 75-79/4 M-79 202 32:05 64.23%
374 Robert Benton Kingwood, TX 9940 32:04 10:20 M 55-59/15 M-57 203 32:46 48.78%
375 Abigail Lange Bend, OR 9862 32:04 10:20 F 12-14/2 F-12 172 32:18 50.81%
376 Jack Lange Bend, OR 9863 32:04 10:20 M 08-11/11 M-10 204 32:19 49.25%
377 Rebecca Nunez Salinas, CA 10248 32:04 10:20 F 19-24/30 F-23 173 32:32 46.18%
378 Carolina Manzo Los Banos, CA 9637 32:11 10:22 F 35-39/18 F-35 174 32:29 46.48%
379 Gregory Fink Seattle, WA 9616 32:14 10:23 M 50-54/22 M-54 205 32:43 47.28%
380 Steve Bradbury Marina Del Rey, CA 10083 32:18 10:24 M 50-54/23 M-51 206 32:51 46.05%
381 Marie David Pacific Grove, CA 9922 32:19 10:24 F 50-54/12 F-51 175 32:46 53.04%
382 Donna Noeller Hughson, CA 9923 32:20 10:25 F 55-59/7 F-55 176 32:47 55.85%
383 Nadia Sultan Morgan Hill, CA 10061 32:25 10:26 F 30-34/25 F-33 177 33:03 45.88%
384 Faridha Barra Rancho Cucamonga, CA 9831 32:26 10:27 F 30-34/26 F-30 178 33:03 45.66%
385 Aliza Geretz New York, NY 9877 32:27 10:27 F 40-44/23 F-40 179 33:19 47.28%
386 Timothy Roehl Carmel, CA 10210 32:29 10:28 M 40-44/18 M-42 207 32:45 42.66%
387 Richard Kirby Santa Rosa, CA 10157 32:29 10:28 M 35-39/16 M-39 208 32:49 41.74%
388 Ava Kirby Santa Rosa, CA 9657 32:29 10:28 F 08-11/7 F-9 180 32:49 54.06%
389 Alma Melahn San Jose, CA 10092 32:31 10:28 F 45-49/21 F-49 181 32:46 51.44%
390 Lara Condosta Granite Bay, CA 9008 32:33 10:29 F 08-11/8 F-10 182 32:50 52.46%
391 Peter Chaney Fresno, CA 9719 32:40 10:31 M 30-34/21 M-32 209 33:36 39.82%
392 Debbie Condosta Granite Bay, CA 9006 32:42 10:32 F 45-49/22 F-48 183 33:00 50.54%
393 Reynolds Cristelli Tulsa, OK 10146 32:45 10:33 F 30-34/27 F-30 184 32:56 45.21%
394 Bita Edwards Woodacre, CA 10029 32:50 10:35 F 40-44/24 F-40 185 32:59 46.72%
395 William Lussier Fremont, CA 10274 32:52 10:35 M 40-44/19 M-41 210 33:21 41.86%
396 Brianna Woltman Royse City, TX 10177 32:53 10:35 F 08-11/9 F-11 186 33:47 50.61%
397 Alex Fekkes Fremont, CA 10273 32:54 10:36 M 08-11/12 M-9 211 33:22 49.72%
398 Magda Martinez Los Banos, CA 9685 32:57 10:37 F 30-34/28 F-31 187 33:17 44.99%
399 Brandon Sobotik Kingwood, TX 9941 32:58 10:37 M 19-24/21 M-24 212 33:42 39.15%
400 Lori Rogers Florence, AZ 10170 33:01 10:38 F 40-44/25 F-40 188 33:15 46.46%
Place Name Location Bib Net Time Pace Division/Place Sex-Age Sex-Place Gun Time Age Grade
401 Majory Forman Novato, CA 9138 33:04 10:39 F 55-59/8 F-56 189 33:12 55.32%
402 Jacqueline Onciano Salinas, CA 9721 33:04 10:39 F 45-49/23 F-46 190 33:30 48.81%
403 Susan Formento Orange, CA 9747 33:05 10:39 F 45-49/24 F-47 191 33:23 49.34%
404 Rosanna McCormick Monterey, CA 9590 33:06 10:39 F 30-34/29 F-32 192 33:17 44.84%
405 Jill Gomon Pacific Grove, CA 9598 33:08 10:40 F 40-44/26 F-41 193 33:20 46.60%
406 Russell Schwartz Park City, UT 10058 33:08 10:40 M 55-59/16 M-57 213 33:45 47.21%
407 Kendra Jones Heath, TX 10602 33:11 10:41 F 35-39/19 F-37 194 33:31 45.48%
408 Catherine Kessler Oakland, CA 9645 33:13 10:42 F 55-59/9 F-56 195 33:48 55.07%
409 Jennifer Ramoneda Sn Luis Obisp, CA 10264 33:22 10:45 F 45-49/25 F-45 196 33:49 47.88%
410 Glenn Schroeder Paso Robles, CA 9773 33:31 10:48 M 55-59/17 M-56 214 33:47 46.27%
411 Sophia Buraglio Carmel Valley, CA 9908 33:31 10:48 F 08-11/10 F-8 197 34:20 54.08%
412 Donald Buraglio Carmel Valley, CA 9907 33:32 10:48 M 35-39/17 M-39 215 34:20 40.43%
413 Stephanie Brawley Merced, CA 9824 33:35 10:49 F 30-34/30 F-31 198 34:26 44.14%
414 Mason Brawley Merced, CA 9825 33:35 10:49 M 30-34/22 M-31 216 34:26 38.63%
415 Donald Hubbard Monterey, CA 9841 33:36 10:49 M 65-69/6 M-65 217 33:54 49.93%
416 Skyler Ow-Bearing Salinas, CA 9992 33:38 10:50 M 12-14/8 M-13 218 33:45 43.13%
417 Anna Loch St Helena, CA 9693 33:39 10:50 F 19-24/31 F-23 199 34:39 44.00%
418 Serge Hodgson Monterey, CA 9764 33:40 10:50 M 45-49/23 M-47 219 34:01 42.79%
419 Andrew Hodgson Monterey, CA 9765 33:40 10:51 M 08-11/13 M-8 220 34:02 50.57%
420 Jeanne Olson Dublin, CA 9149 33:41 10:51 F 60-64/9 F-63 200 33:48 59.95%
421 Camille Kolles Carmel, CA 10211 33:43 10:52 F 40-44/27 F-44 201 34:00 46.93%
422 Shaylan Gokel Santa Clara, CA 9633 33:46 10:52 M 08-11/14 M-10 221 34:14 46.77%
423 Devin Pruthi Monterey, CA 9691 33:46 10:52 M 08-11/15 M-11 222 34:14 45.33%
424 Karen Wilson Santa Barbara, CA 10111 33:46 10:53 F 30-34/31 F-34 202 34:34 44.15%
425 Justin Raver Coeur D Alene, ID 9529 33:56 10:56 M 12-14/9 M-13 223 34:50 42.75%
426 Claire Gendler Santa Cruz, CA 10094 33:56 10:56 F 25-29/18 F-27 203 35:33 43.64%
427 Tom Bolger Munster, IN 9904 33:59 10:57 M 65-69/7 M-66 224 35:04 49.85%
428 Meghan Koslowski Campbell, CA 9524 34:01 10:57 F 25-29/19 F-26 204 34:23 43.53%
429 Josh Ben Campbell, CA 9525 34:02 10:58 M 25-29/24 M-27 225 34:24 37.92%
430 Maria Kristianti Daly City, CA 9932 34:03 10:58 F 30-34/32 F-31 205 34:26 43.54%
431 Teresa Dawber Pacific Grove, CA 9839 34:11 11:00 F 45-49/26 F-45 206 34:49 46.73%
432 Christianna Kearns Carmel, CA 9981 34:11 11:00 F 30-34/33 F-34 207 34:51 43.61%
433 Simon Olguin Greenfield, CA 10020 34:13 11:01 M 35-39/18 M-38 226 34:39 39.33%
434 Georgia Riley Pacific Grove, CA 9046 34:16 11:02 F 65-69/3 F-65 208 34:23 60.78%
435 Tracy Schlender Parker, CO 11656 34:20 11:03 F 35-39/20 F-39 209 35:10 44.39%
436 Tony Sanchez Salinas, CA 9794 34:20 11:03 M 25-29/25 M-27 227 34:35 37.59%
437 April Ramirez Vallejo, CA 9934 34:21 11:04 F 30-34/34 F-34 210 34:50 43.40%
438 Katie Pound Wichita, KS 9601 34:22 11:04 F 19-24/32 F-24 211 34:36 43.09%
439 Bob Emanuel Monterey, CA 10253 34:30 11:07 M 50-54/24 M-54 228 34:45 44.18%
440 Gabriela Velton San Jose, CA 9003 34:32 11:07 F 25-29/20 F-25 212 34:54 42.88%
441 Jill Loomis Hudson, WI 10194 34:33 11:07 F 35-39/21 F-38 213 34:45 43.87%
442 Amanda Compton Pacific Grove, CA 10072 34:33 11:07 F 25-29/21 F-25 214 34:51 42.86%
443 John Houk Reno, NV 10039 34:37 11:09 M 55-59/18 M-58 229 35:08 45.57%
444 Robert Harton Lansing, IL 9971 34:38 11:09 M 55-59/19 M-57 230 34:38 45.14%
445 Ralph Tuggle El Dorado, CA 9526 34:48 11:12 M 55-59/20 M-57 231 35:12 44.94%
446 Della Aguilar Salinas, CA 9638 34:49 11:13 F 19-24/33 F-24 215 35:11 42.53%
447 Kathleen Colletto Novato, CA 9098 35:01 11:17 F 65-69/4 F-68 216 35:09 62.33%
448 Bob Kovash San Francisco, CA 9853 35:02 11:17 M 70-74/7 M-71 232 35:46 50.98%
449 Jhaleh Akhavan Olympia, WA 10226 35:02 11:17 F 19-24/34 F-24 217 35:30 42.27%
450 Josephine Gaultier Seattle, WA 10222 35:02 11:17 F 12-14/3 F-12 218 35:30 46.50%
451 Stephanie Sanchez Salinas, CA 9780 35:07 11:18 F 25-29/22 F-26 219 35:21 42.17%
452 Isabelle Sharp Pacific Grove, CA 10191 35:11 11:20 F 08-11/11 F-9 220 35:39 49.91%
453 Scott Fehrenbacher San Diego, CA 9701 35:11 11:20 M 25-29/26 M-27 233 35:57 36.68%
454 Myrna Guzman San Diego, CA 9709 35:11 11:20 F 25-29/23 F-28 221 35:57 42.09%
455 Caitlin Mitchell San Diego, CA 9700 35:13 11:20 F 25-29/24 F-26 222 35:57 42.05%
456 Madeleine Sharp Pacific Grove, CA 10192 35:15 11:21 F 08-11/12 F-9 223 35:44 49.81%
457 Phung Price Houston, TX 9503 35:41 11:30 F 25-29/25 F-26 224 36:33 41.48%
458 James Grant Santa Rosa Beach, FL 9835 35:43 11:30 M 50-54/25 M-52 234 36:15 41.97%
459 Diana Grant Santa Rosa Beach, FL 9837 35:43 11:30 F 55-59/10 F-57 225 36:15 51.91%
460 Amy Halter Monterey, CA 9609 35:45 11:31 F 30-34/35 F-30 226 36:10 41.42%
461 Danillo Garcia BRA, 9816 35:46 11:31 M 35-39/19 M-36 235 36:05 37.11%
462 Laura Curns Atlanta, GA 9501 35:49 11:32 F 40-44/28 F-40 227 36:04 42.83%
463 Anne Goode Pacific Grove, CA 9012 35:54 11:34 F 65-69/5 F-66 228 35:59 58.89%
464 Darcy Brewer Monterey, CA 10124 35:56 11:34 M 50-54/26 M-50 236 36:20 41.07%
465 Rebecca Bolger Mount Prospect, IL 9895 35:56 11:34 F 40-44/29 F-43 229 37:01 43.67%
466 Justine Garvey Mill Valley, CA 10027 35:56 11:34 F 19-24/35 F-21 230 36:19 41.21%
467 Kent Kushar Oakdale, CA 10123 36:02 11:36 M 65-69/8 M-66 237 36:19 47.02%
468 Juliane Souza BRA, 9817 36:07 11:38 F 25-29/26 F-25 231 36:26 41.00%
469 Staci Hansen Santa Cruz, CA 10064 36:08 11:38 F 25-29/27 F-27 232 36:41 40.98%
470 Laura Rodgers Santa Cruz, CA 10059 36:08 11:38 F 30-34/36 F-33 233 36:41 41.16%
471 Christopher Waddell Carmel Valley, CA 10019 36:09 11:38 M 25-29/27 M-25 238 36:29 35.70%
472 David Jarmon Los Altos, CA 9679 36:11 11:39 M 50-54/27 M-50 239 36:22 40.78%
473 Javier Solis Salinas, CA 9564 36:17 11:41 M 45-49/24 M-45 240 36:32 39.11%
474 Heather Ricketts Carmel Valley, CA 9962 36:17 11:41 F 35-39/22 F-35 234 36:55 41.22%
475 Shelly Whitworth Monterey, CA 10150 36:20 11:42 F 30-34/37 F-31 235 37:11 40.80%
476 Tina Gularte Monterey, CA 10151 36:20 11:42 F 40-44/30 F-42 236 37:11 42.82%
477 Susan Schlick Watsonville, CA 9617 36:22 11:43 F 55-59/11 F-59 237 36:57 52.41%
478 Jennifer Skidgelclarke Salinas, CA 10219 36:24 11:43 F 35-39/23 F-35 238 37:30 41.09%
479 David Rouse Aptos, CA 9790 36:36 11:47 M 65-69/9 M-69 241 37:15 47.65%
480 Fleurdeliza Rabara Castro Valley, CA 9656 36:50 11:52 F 40-44/31 F-41 239 37:26 41.92%
481 Christina Nunez Salinas, CA 10247 36:50 11:52 F 19-24/36 F-22 240 37:18 40.20%
482 Karen Marshall Monterey, CA 9874 36:55 11:53 F 45-49/27 F-46 241 37:14 43.72%
483 Christine Lozada-Salazar Gilroy, CA 9583 36:58 11:54 F 30-34/38 F-32 242 37:19 40.14%
484 Daisy Alejandro Salinas, CA 9639 37:01 11:55 F 40-44/32 F-42 243 37:21 42.03%
485 Kim Roeser Windsor, CA 10026 37:03 11:56 F 35-39/24 f-36 244 37:26 40.55%
486 Danielle Cloud Aptos, CA 9752 37:04 11:56 F 12-14/4 F-13 245 37:23 43.09%
487 Michael Cloud Aptos, CA 10203 37:04 11:56 M 55-59/21 M-59 242 37:23 42.91%
488 Jennifer Wilcox Severn, MD 9712 37:09 11:58 F 35-39/25 F-35 246 37:51 40.26%
489 Kristen Ball Parker, CO 9745 37:09 11:58 F 35-39/26 F-38 247 37:51 40.80%
490 Taylor Mathieson Newport Beach, CA 9542 37:11 11:58 F 25-29/28 F-26 248 38:12 39.82%
491 Amanda Graf Chino Hills, CA 10244 37:25 12:03 F 19-24/37 F-23 249 37:44 39.57%
492 Roseann Graf Chino Hills, CA 10243 37:26 12:03 F 45-49/28 F-49 250 37:45 44.68%
493 Yeelyn Chan Belmont, CA 10212 37:28 12:04 F 19-24/38 F-24 251 43:43 39.52%
494 Kathryn Asp Red Wing, MN 9540 37:29 12:04 F 60-64/10 F-61 252 38:24 52.31%
495 Janice Tsai Sacramento, CA 9827 37:35 12:06 F 30-34/39 F-30 253 37:50 39.40%
496 Andrea Minor Carson City, NV 9748 37:39 12:08 F 50-54/13 F-54 254 38:10 47.30%
497 Rex Salge Hot Springs, AR 9579 37:48 12:10 M 40-44/20 M-41 243 38:04 36.39%
498 Shirley Kiley Salinas, CA 9915 37:58 12:14 F 40-44/33 F-41 255 38:34 40.67%
499 Orion Keehan Monterey, CA 10195 37:58 12:14 M 08-11/16 M-9 244 38:15 43.08%
500 Michelle Story Salinas, CA 9918 38:00 12:14 F 35-39/27 F-38 256 38:36 39.89%
Place Name Location Bib Net Time Pace Division/Place Sex-Age Sex-Place Gun Time Age Grade
501 Sara Quiroz Carmel, CA 10120 38:00 12:14 F 30-34/40 F-34 257 38:13 39.23%
502 Georgia Seto San Francisco, CA 10065 38:00 12:14 F 25-29/29 F-28 258 38:25 38.96%
503 Cecilia Seto San Francisco, CA 10063 38:00 12:14 F 25-29/30 F-28 259 38:25 38.96%
504 Marnie Lamas Seaside, CA 10121 38:01 12:14 F 35-39/28 F-39 260 38:13 40.09%
505 Kevin Keehan Monterey, CA 10196 38:03 12:15 M 45-49/25 M-46 245 38:20 37.55%
506 Dagmar Keehan Monterey, CA 10197 38:04 12:15 F 35-39/29 F-38 261 38:21 39.82%
507 Heidi Olguin Greenfield, CA 10021 38:09 12:17 F 35-39/30 F-36 262 38:35 39.38%
508 Karen Northcutt Sulphur Springs, TX 9621 38:10 12:18 F 45-49/29 F-45 263 38:56 41.85%
509 Charlie Northcutt Depoe Bay, OR 10603 38:11 12:18 M 19-24/22 M-24 246 38:57 33.80%
510 Chris Blackburn Templeton, CA 9793 38:12 12:18 F 50-54/14 F-51 264 39:00 44.87%
511 Vince Hucks Monterey, CA 9636 38:12 12:18 M 45-49/26 M-48 247 38:45 38.02%
512 Susan Kavanagh Carmel, CA 10173 38:17 12:20 F 40-44/34 F-44 265 38:53 41.33%
513 Shoaib Sultan Morgan Hill, CA 9822 38:26 12:23 M 35-39/20 M-35 248 39:08 34.32%
514 Andrea Weicker Hayward, CA 10179 38:26 12:23 F 25-29/31 F-26 266 38:45 38.52%
515 Richard Hughett Salinas, CA 10147 38:27 12:23 M 70-74/8 M-70 249 38:56 45.88%
516 Kelli McMaster Fremont, CA 9778 38:47 12:29 F 30-34/41 F-30 267 39:11 38.18%
517 Erica Salter San Jose, CA 9779 38:47 12:29 F 30-34/42 F-31 268 39:11 38.22%
518 Maureen Casey San Jose, CA 9777 38:47 12:29 F 25-29/32 F-27 269 39:11 38.18%
519 Bobbi Frensley San Jose, CA 9838 38:47 12:29 F 25-29/33 F-27 270 39:11 38.18%
520 Edison Paw Union City, CA 9933 38:50 12:30 M 50-54/28 M-54 250 39:14 39.24%
521 Elizabeth Brewer Monterey, CA 10125 39:01 12:34 F 19-24/39 F-22 271 40:41 37.95%
522 Kristy Corbit Half Moon Bay, CA 9627 39:01 12:34 F 40-44/35 F-42 272 39:20 39.87%
523 Jody Mow Dallas, TX 10161 39:03 12:34 F 55-59/12 F-59 273 39:20 48.80%
524 Allison Kingsbury Dallas, TX 10000 39:04 12:35 F 25-29/34 F-29 274 39:22 37.90%
525 Laura De La Maza Mount Pleasant, SC 9763 39:17 12:39 F 55-59/13 F-58 275 39:33 47.88%
526 Michelle Cline Salinas, CA 9734 39:17 12:39 F 25-29/35 F-26 276 39:34 37.69%
527 Sarah Harton Walnut Creek, CA 9968 39:19 12:40 F 30-34/43 F-31 277 39:27 37.70%
528 Christine Trimble Taft, CA 10251 39:21 12:40 F 50-54/15 F-53 278 39:36 44.70%
529 Cesar Godoy Salinas, CA 10169 39:22 12:40 M 50-54/29 M-54 251 39:32 38.71%
530 Keith Judkins Vallejo, CA 9811 39:25 12:42 M 45-49/27 M-45 252 40:11 36.00%
531 Jennifer Marks Watsonville, CA 9624 39:26 12:42 F 55-59/14 F-57 279 40:01 47.02%
532 Helen Mackinlay Pebble Beach, CA 9553 39:30 12:43 F 65-69/6 F-69 280 39:59 56.14%
533 Susanna Barnwell Pacific Grove, CA 10005 39:31 12:43 F 35-39/31 F-35 281 39:57 37.85%
534 Tim Barnwell Pacific Grove, CA 10006 39:31 12:43 M 35-39/21 M-35 253 39:57 33.38%
535 Aaron Garcia Carmel Valley, CA 10156 39:41 12:47 M 08-11/17 M-8 254 40:30 42.90%
536 Kam Baron Carmel Valley, CA 10154 39:41 12:47 M 15-18/8 M-17 255 40:30 34.03%
537 Laura Hutchison Davis, CA 9628 39:42 12:47 F 19-24/40 F-23 282 39:56 37.30%
538 Marybernadette Bayabo Walnut Creek, CA 10142 39:43 12:47 F 35-39/32 F-37 283 39:55 37.99%
539 Stan Bell Seaside, CA 9858 39:44 12:48 M 40-44/21 M-44 256 40:46 35.42%
540 John Tompkin Monterey, CA 9938 39:45 12:48 M 65-69/10 M-66 257 40:16 42.62%
541 Elizabeth Ticehurst Fremont, CA 9782 39:47 12:48 F 30-34/44 F-34 284 41:05 37.47%
542 Sierra Wilder Salinas, CA 9781 39:47 12:49 F 15-18/8 F-16 285 41:05 38.47%
543 Maria Larios San Juan Bautista, CA 9770 40:07 12:55 F 25-29/36 F-28 286 40:42 36.91%
544 Diana Perez Monterey, CA 9792 40:19 12:59 F 35-39/33 F-35 287 40:48 37.10%
545 Lisa Ow Salinas, CA 9991 40:34 13:04 F 30-34/45 F-34 288 41:09 36.74%
546 Cynthia Walker Monterey, CA 10115 40:37 13:05 F 35-39/34 F-38 289 41:40 37.32%
547 Laine Figueroa Pacific Grove, CA 9733 40:43 13:07 F 60-64/11 F-62 290 41:00 48.89%
548 Joanne Creel Yarmouth Port, MA 10601 40:49 13:09 F 60-64/12 F-60 291 41:35 47.39%
549 Krista Towle Carmel, CA 10260 40:54 13:10 F 25-29/37 F-25 292 41:26 36.20%
550 Bradley Towle Carmel, CA 10259 40:55 13:10 M 50-54/30 M-51 258 41:27 36.35%
551 Felipe Vargas Monterey, CA 10206 41:01 13:13 M 12-14/10 M-12 259 41:24 36.26%
552 Alicia Ow Salinas, CA 9990 41:02 13:13 F 55-59/15 F-58 293 41:09 45.84%
553 Joanne Godfrey Portland, OR 9950 41:07 13:14 F 40-44/36 F-44 294 41:34 38.48%
554 Kathy Massanet Long Beach, CA 9880 41:26 13:21 F 50-54/16 F-54 295 42:07 42.98%
555 Cristina Fekkes Fremont, CA 10272 41:27 13:21 F 35-39/35 F-36 296 41:57 36.24%
556 Corby Harvey Vallejo, CA 9809 41:36 13:24 F 50-54/17 F-50 297 42:21 40.68%
557 Deianira Ow-Bearing Salinas, CA 9993 41:36 13:24 F 12-14/5 F-12 298 42:12 39.16%
558 Clayton Luu Union City, CA 9508 41:46 13:27 M 25-29/28 M-27 260 41:55 30.90%
559 Lily Gahagan San Francisco, CA 9913 41:47 13:27 F 25-29/38 F-28 299 42:19 35.43%
560 Jairam Eyunni San Francisco, CA 9914 41:47 13:27 M 25-29/29 M-28 261 42:19 30.89%
561 Michelle Reyes Salinas, CA 9547 41:47 13:27 F 40-44/37 F-43 300 42:07 37.55%
562 Ignacio Alcala Monterey, CA 9661 41:51 13:29 M 25-29/30 M-29 262 42:23 30.88%
563 Maria Elena Alcala Monterey, CA 10106 41:52 13:29 F 60-64/13 F-64 301 42:24 48.98%
564 Wendy Abercrombie Hollister, CA 9586 41:59 13:31 F 30-34/46 F-34 302 42:32 35.50%
565 Carin Sutton Hollister, CA 9554 41:59 13:31 F 30-34/47 F-30 303 42:32 35.27%
566 Anna Linn Salinas, CA 9561 42:08 13:34 F 30-34/48 F-31 304 42:28 35.18%
567 Francesca Macciardisharp Pacific Grove, CA 10190 42:13 13:36 F 45-49/30 F-49 305 42:44 39.61%
568 Isaac Sharp Pacific Grove, CA 10189 42:14 13:36 M 45-49/28 M-48 263 42:44 34.39%
569 Erin Stonich Livermore, CA 10075 42:16 13:36 F 25-29/39 F-26 306 43:11 35.03%
570 Javier Vargas Monterey, CA 10205 42:17 13:37 M 12-14/11 M-14 264 42:38 33.56%
571 Jen Anderson Watsonville, CA 11418 42:23 13:39 F 25-29/40 F-29 307 43:05 34.93%
572 Marcia Morrison San Jose, CA 9066 42:27 13:40 F 60-64/14 F-61 308 43:05 46.19%
573 Karen Dehoog Campbell, CA 9732 42:36 13:43 F 40-44/38 F-43 309 42:55 36.83%
574 Kie Ito Salinas, CA 9604 42:51 13:48 F 08-11/13 F-10 310 43:48 39.84%
575 Adriana Catledge Watsonville, CA 9791 42:54 13:49 F 45-49/31 F-47 311 43:39 38.05%
576 Dina Kovash San Francisco, CA 9017 43:10 13:54 F 70-74/2 F-71 312 43:17 53.11%
577 Logan Caulk Gonzales, CA 10070 43:13 13:55 F 15-18/9 F-16 313 44:01 35.42%
578 Beatriz Ahern Laguna Niguel, CA 10263 43:16 13:56 F 50-54/18 F-50 314 43:33 39.11%
579 Lura Migdal Pacific Grove, CA 9930 43:16 13:56 F 25-29/41 F-28 315 43:37 34.22%
580 C Short Gonzales, CA 10069 43:17 13:56 F 35-39/36 F-38 316 44:06 35.02%
581 Trish Handley Frudden King City, CA 9807 43:17 13:56 F 40-44/39 F-41 317 44:06 35.67%
582 Liz Handley Mauras Salinas, CA 10103 43:17 13:56 F 30-34/49 F-32 318 44:06 34.28%
583 Jaime Haga Morgan Hill, CA 9707 43:20 13:57 F 19-24/41 F-23 319 43:45 34.17%
584 Janet Dolan Morgan Hill, CA 9706 43:20 13:57 F 50-54/19 F-51 320 43:45 39.55%
585 Christen Greenfield Monterey, CA 9675 43:38 14:03 F 25-29/42 F-28 321 44:36 33.93%
586 Emily Thomason Davis, CA 10209 43:40 14:04 F 30-34/50 F-30 322 44:23 33.91%
587 Kay Allan Carmel, CA 9939 43:41 14:04 F 70-74/3 F-72 323 44:12 53.40%
588 Seng Lor Saelee Richmond, CA 9687 44:07 14:12 F 30-34/51 F-31 324 45:06 33.60%
589 Christina Lokke Livermore, CA 9620 44:30 14:20 F 25-29/43 F-29 325 45:18 33.27%
590 Carol Lokke Livermore, CA 9619 44:30 14:20 F 65-69/7 F-65 326 45:18 46.80%
591 Josue Valdez Gonzales, CA 10172 44:32 14:20 M 12-14/12 M-12 265 46:02 33.40%
592 Obdulia Hernandez Gonzales, CA 10171 44:37 14:22 F 25-29/44 F-29 327 46:07 33.18%
593 Jack Johnson Santa Cruz, CA 9556 44:54 14:27 M 65-69/11 M-68 266 45:10 38.43%
594 Ashley Freeman Little Rock, AR 9900 45:04 14:31 M 25-29/31 M-27 267 45:20 28.63%
595 Renata Aryanti Stanford, CA 9920 45:08 14:32 F 19-24/42 F-23 328 45:22 32.80%
596 Frank "Mickey" Hearne King City, CA 10228 45:09 14:32 F 65-69/8 F-67 329 46:00 47.56%
597 Rachel Murawski Falls, PA 9506 45:20 14:36 F 50-54/20 F-54 330 45:42 39.28%
598 James Fox Hurst, TX 10198 45:31 14:39 M 40-44/22 M-42 268 46:48 30.44%
599 Tina Muia Carmel Valley, CA 9935 45:42 14:43 F 40-44/40 F-44 331 46:23 34.62%
600 Cynthia Muscarello Salinas, CA 9953 45:49 14:45 F 50-54/21 F-51 332 46:14 37.41%
Place Name Location Bib Net Time Pace Division/Place Sex-Age Sex-Place Gun Time Age Grade
601 Craig Waddell Carmel Valley, CA 9810 45:53 14:46 M 55-59/22 M-57 269 46:13 34.08%
602 Sue Ann Moore Fullerton, CA 9944 45:55 14:47 F 50-54/22 F-52 333 46:10 37.80%
603 Theresa Waddell Carmel Valley, CA 9803 45:55 14:47 F 55-59/16 F-56 334 46:13 39.83%
604 Julia Lohr Fullerton, CA 9945 45:55 14:47 F 30-34/52 F-31 335 46:11 32.28%
605 Kristina Wagstrom Minneapolis, MN 9872 45:59 14:48 F 25-29/45 F-28 336 46:35 32.20%
606 McKennon Woltman Royse City, TX 10178 46:02 14:49 F 12-14/6 F-14 337 47:05 34.15%
607 Patricia Long Carmel, CA 9589 46:08 14:51 F 55-59/17 F-57 338 46:47 40.19%
608 Denise Schroeder Paso Robles, CA 9772 46:09 14:52 F 50-54/23 F-54 339 46:25 38.58%
609 Micaela Gies Evergreen, CO 9901 46:12 14:53 F 15-18/10 F-17 340 47:19 32.73%
610 Lexi Hellums Evergreen, CO 10182 46:12 14:53 F 08-11/14 F-10 341 47:19 36.95%
611 Vicki Benton Kingwood, TX 9942 46:20 14:55 F 45-49/32 F-46 342 47:02 34.83%
612 Ryan Hayes Pebble Beach, CA 10068 46:26 14:57 M 12-14/13 M-12 270 47:24 32.03%
613 Thomas Kaim New York, NY 10250 46:28 14:58 M 35-39/22 M-36 271 47:27 28.56%
614 Vanita Patel Santa Clara, CA 9635 46:29 14:58 F 65-69/9 F-65 343 46:57 44.80%
615 Savita Gokel Los Altos, CA 9634 46:29 14:58 F 60-64/15 F-63 344 46:57 43.44%
616 Christina Tanney Kerman, CA 9813 46:33 14:59 F 25-29/46 F-25 345 47:04 31.81%
617 Shayla Neufeld Monterey, CA 9814 46:34 14:59 F 25-29/47 F-25 346 47:05 31.79%
618 Shell Fisher Carmel, CA 10067 46:53 15:06 M 75-79/5 M-78 272 47:52 42.85%
619 Anika Veres Oxnard, CA 9867 47:07 15:10 F 55-59/18 F-56 347 47:39 38.82%
620 David Goulart Fresno, CA 10608 47:10 15:11 M 50-54/31 M-50 273 47:17 31.28%
621 Maxilyn Nicholson Cottonwood Heights, UT 9593 47:15 15:13 F 65-69/10 F-66 348 47:24 44.74%
622 Teresa Hernandez Salinas, CA 10265 47:26 15:16 F 35-39/37 F-35 349 47:47 31.53%
623 Ruthann Leppala Traverse City, MI 9716 47:30 15:18 F 60-64/16 F-63 350 48:20 42.51%
624 Robert Kilpatrick Santa Cruz, CA 9757 47:30 15:18 M 55-59/23 M-55 274 47:40 32.36%
625 Erin Legacki Woodland, CA 9864 48:14 15:32 F 30-34/53 F-30 351 49:20 30.69%
626 Jill Wegrzyn San Diego, CA 9875 48:15 15:32 F 25-29/48 F-29 352 49:20 30.68%
627 Abby Taylor-Silva Salinas, CA 9738 48:44 15:41 F 30-34/54 F-31 353 49:51 30.41%
628 Vaile Fujikawa Walnut Creek, CA 9893 48:46 15:42 F 25-29/49 F-28 354 49:51 30.36%
629 Michelle Gaskin Fresno, CA 9859 49:06 15:49 F 35-39/38 F-38 355 49:33 30.87%
630 Liz Baron Carmel Valley, CA 10153 49:14 15:51 F 45-49/33 F-49 356 50:04 33.97%
631 Trinette Gilbert Carmel Valley, CA 10152 49:14 15:51 F 40-44/41 F-41 357 50:04 31.36%
632 Michaela Garcia Carmel Valley, CA 10155 49:14 15:51 F 08-11/15 F-8 358 50:04 36.81%
633 Mary-Ann Lucido Seaside, CA 9865 49:29 15:56 F 65-69/11 F-67 359 50:33 43.40%
634 Wendell Baskin Fort Worth, TX 9866 50:01 16:06 M 55-59/24 M-57 275 52:34 31.27%
635 Wendy Davies Pacific Grove, CA 10053 50:08 16:08 F 45-49/34 F-45 360 50:26 31.86%
636 George Davies Pacific Grove, CA 10054 50:12 16:10 M 45-49/29 M-46 276 50:31 28.46%
637 Sherrie Atteberry Paso Robles, CA 9555 50:13 16:10 F 40-44/42 F-44 361 51:09 31.51%
638 Gayle Guenther Cincinnati, OH 10606 50:14 16:10 F 60-64/17 F-62 362 51:07 39.63%
639 Thomas Guenther Cincinnati, OH 10023 50:15 16:11 M 65-69/12 M-68 277 51:08 34.34%
640 Lori Rhoads Carmel, CA 9902 50:27 16:14 F 45-49/35 F-46 363 50:45 31.99%
641 Alexandra Molinaro San Francisco, CA 10685 50:46 16:21 F 25-29/50 F-25 364 52:26 29.16%
642 Donna Deperisa Pacific Grove, CA 10113 50:46 16:21 F 35-39/39 F-35 365 52:27 29.46%
643 Natalia Roehling Marina, CA 10028 50:52 16:23 F 19-24/43 F-22 366 51:44 29.11%
644 Chris Yontz Monterey, CA 10060 51:03 16:26 M 25-29/32 M-28 278 51:25 25.28%
645 Allison Edwards Monterey, CA 9929 51:03 16:26 F 25-29/51 F-28 367 51:26 29.00%
646 Judy Tang Union City, CA 9507 51:27 16:34 F 25-29/52 F-25 368 51:36 28.78%
647 Neil Herrier Salinas, CA 10055 51:42 16:39 M 50-54/32 M-53 279 52:32 29.25%
648 Victoria Biurrun MEX, 9984 51:59 16:44 F 40-44/43 F-44 369 52:47 30.44%
649 Maddie Newcombe Spanish Springs, NV 9573 52:02 16:45 F 08-11/16 F-11 370 52:14 31.98%
650 Amy Cook Fort Worth, TX 9746 52:08 16:47 F 55-59/19 F-58 371 52:28 36.07%
651 Chandra Cholakian Salinas, CA 9795 52:11 16:48 F 35-39/40 F-37 372 52:49 28.91%
652 Christina Esparza-Luna Salinas, CA 9834 52:12 16:48 F 30-34/55 F-32 373 52:49 28.43%
653 Jennifer Rock Monterey, CA 10127 52:12 16:49 F 35-39/41 F-35 374 52:26 28.65%
654 Mi Jin Youn Marina, CA 9924 52:16 16:50 F 30-34/56 F-33 375 52:29 28.45%
655 Annalisa Huynh Salinas, CA 9921 52:18 16:50 F 30-34/57 F-32 376 52:31 28.37%
656 Deb Azhikakath-Gilbert Sparks, NV 9558 52:21 16:51 F 35-39/42 F-38 377 53:09 28.95%
657 Sheri Shaw Seaside, CA 9806 52:29 16:54 F 50-54/24 F-50 378 52:57 32.24%
658 Frances Cheda Petaluma, CA 9518 52:30 16:54 F 25-29/53 F-29 379 53:15 28.20%
659 Terri Farmer Penngrove, CA 9509 52:30 16:54 F 50-54/25 F-53 380 53:15 33.50%
660 Madelyn Burke Pacific Grove, CA 9808 52:30 16:54 F 40-44/44 F-42 381 52:58 29.63%
661 Kim Fujii Seaside, CA 9936 52:31 16:54 F 55-59/20 F-56 382 52:56 34.83%
662 Marcia Ford Marina, CA 9970 52:58 17:03 F 50-54/26 F-53 383 53:55 33.21%
663 Lucy Stewart Stewart Gonzales, CA 9788 53:14 17:08 F 45-49/36 F-49 384 53:51 31.41%
664 Lupe Alvarado Hesperia, CA 9500 53:18 17:10 F 50-54/27 F-54 385 59:07 33.41%
665 Jose Ado Hesperia, CA 10245 53:18 17:10 M 50-54/33 M-54 280 59:07 28.59%
666 Obsidiana Abril Brisbane, CA 10202 53:34 17:15 F 55-59/21 F-59 386 54:03 35.57%
667 Linda Kloth Seaside, CA 10018 53:56 17:22 F 35-39/43 F-39 387 54:33 28.25%
668 Karl Nicholson Cottonwood Heights, UT 9592 53:58 17:22 M 70-74/9 M-73 281 54:12 34.01%
669 Marsha Rafter Auburn, CA 10240 54:04 17:24 F 55-59/22 F-55 388 54:40 33.40%
670 Carol Weicker Castro Valley, CA 10184 54:13 17:27 F 60-64/18 F-60 389 54:34 35.67%
671 Larry Johnson Monterey, CA 9536 54:31 17:33 M 60-64/12 M-62 282 55:19 29.94%
672 Kathleen Baker Monterey, CA 9535 54:31 17:33 F 60-64/19 F-63 390 55:19 37.03%
673 Glenn Fraser Aptos, CA 9754 54:34 17:34 M 45-49/30 M-46 283 55:04 26.18%
674 Jan Cloud Aptos, CA 9751 54:35 17:34 F 55-59/23 F-55 391 55:04 33.08%
675 Margie Fraser Aptos, CA 9753 54:36 17:35 F 80-84/1 F-80 392 55:05 49.56%
676 Beth Knipp Waterloo, IA 10073 54:40 17:36 F 55-59/24 F-55 393 55:27 33.03%
677 Dave Knipp Waterloo, IA 10074 54:40 17:36 M 50-54/34 M-54 284 55:26 27.87%
678 Jennifer Bamsey Pacific Grove, IA 10090 54:41 17:36 F 30-34/58 F-31 394 55:28 27.10%
679 Melissa Cadena Salinas, CA 10604 54:51 17:40 F 30-34/59 F-34 395 55:18 27.17%
680 Gail Warner Loxahatchee, FL 9959 54:52 17:40 F 55-59/25 F-57 396 55:37 33.79%
681 Amelia Hill San Francisco, CA 9729 54:54 17:41 F 25-29/54 F-29 397 59:13 26.97%
682 Ann Pierson Brisbane, CA 10200 54:55 17:41 F 55-59/26 F-59 398 55:25 34.70%
683 Catherine Williams Kennett Square, PA 10201 54:56 17:41 F 60-64/20 F-61 399 55:25 35.69%
684 Gwendolen Wright Modesto, CA 9730 54:57 17:41 F 60-64/21 F-62 400 59:15 36.23%
685 Tom Ashburn Los Gatos, CA 9818 54:59 17:42 M 65-69/13 M-66 285 55:53 30.81%
686 Christian Roa San Jose, CA 9819 54:59 17:42 M 25-29/33 M-29 286 55:53 23.50%
687 Boonie Lang Granite Bay, CA 9641 55:20 17:49 F 80-84/2 F-80 401 55:56 48.90%
688 Lisa Wood Fresno, CA 9851 55:39 17:55 F 35-39/44 F-39 402 56:09 27.38%
689 Raymond Dr Baker Fresno, CA 9850 56:00 18:02 M 70-74/10 M-70 287 56:34 31.50%
690 Paula Baker Fresno, CA 9860 56:01 18:02 F 60-64/22 F-60 403 56:34 34.52%
691 Margarete Larson Carmel Valley, CA 10134 56:10 18:05 F 80-84/3 F-83 404 57:04 52.15%
692 Gil Lang Granite Bay, CA 9643 56:34 18:13 M 75-79/6 M-78 288 57:10 35.51%
693 Freda Freeman Conway, AR 9595 57:38 18:33 F 55-59/27 F-57 405 57:55 32.17%
694 William Freeman Conway, AR 9596 57:38 18:33 M 55-59/25 M-57 289 57:55 27.13%
695 Jessica Machado Turlock, CA 9671 57:44 18:35 F 15-18/11 F-18 406 58:19 25.93%
696 Charlotte Dutra Turlock, CA 9669 57:44 18:35 F 55-59/28 F-56 407 58:19 31.68%
697 Kendra Howell Pacific Grove, CA 10047 57:49 18:37 F 45-49/37 F-48 408 59:10 28.58%
698 Angelia Thomas Marina, CA 9969 57:54 18:39 F 25-29/55 F-26 409 58:52 25.57%
699 Ashika Dutt Pacific Grove, CA 10007 57:55 18:39 F 25-29/56 F-26 410 58:52 25.56%
700 Nicola Schulte Oakland, CA 9759 58:01 18:41 F 08-11/17 F-8 411 58:52 31.24%
Place Name Location Bib Net Time Pace Division/Place Sex-Age Sex-Place Gun Time Age Grade
701 Jeffrey Schulte Oakland, CA 9758 58:01 18:41 M 40-44/23 M-43 290 58:53 24.07%
702 Debra Basher New Almaden, CA 9925 58:02 18:41 F 50-54/28 F-53 412 58:26 30.31%
703 Michael Groeber Yellow Springs, OH 9912 58:08 18:43 M 55-59/26 M-58 291 58:42 27.13%
704 Constance Crockett Yellow Springs, OH 9911 58:09 18:43 F 55-59/29 F-55 413 58:43 31.05%
705 Mary Schwartzhoff Dayton, OH 9665 58:29 18:50 F 70-74/4 F-73 414 58:43 40.56%
706 Kathy Machado Turlock, CA 9670 58:49 18:56 F 55-59/30 F-59 415 59:25 32.40%
707 Maureen Kramer Turlock, CA 9682 58:50 18:57 F 50-54/29 F-50 416 59:25 28.76%
708 Laurel Anderson Sun Prairie, WI 9783 59:04 19:01 F 60-64/23 F-60 417 1:02:05 32.74%
709 Celia Quezada Greenfield, CA 10236 59:13 19:04 F 35-39/45 F-38 418 1:01:42 25.59%
710 Sue Naylor Renton, WA 9576 59:15 19:05 F 50-54/30 F-51 419 1:00:13 28.93%
711 Ramiro Santibanez Greenfield, CA 10031 59:17 19:05 M 25-29/34 M-26 292 1:01:42 21.77%
712 Cynthia Baker Santa Cruz, CA 10181 59:45 19:14 F 25-29/57 F-29 420 1:00:27 24.78%
713 Maxine Schulte Oakland, CA 9760 59:48 19:15 F 08-11/18 F-9 421 1:00:40 29.36%
714 Katherine Jenkins Salinas, CA 10040 1:00:15 19:24 F 45-49/38 F-47 422 1:01:14 27.09%
715 Bruce McCormick Austin, TX 9787 1:00:22 19:26 M 55-59/27 M-59 293 1:00:34 26.35%
716 Ellen Vikjord Soledad, CA 9804 1:00:27 19:28 F 08-11/19 F-9 423 1:00:54 29.04%
717 Cindy Finnegan Foster City, CA 9789 1:00:32 19:29 F 55-59/31 F-58 424 1:01:16 31.07%
718 Chuck Bellemare Hollister, CA 9786 1:00:32 19:29 M 35-39/23 M-39 294 1:01:16 22.39%
719 Nicole Bellemare Hollister, CA 9785 1:00:32 19:29 F 35-39/46 F-38 425 1:01:16 25.03%
720 Robin Jenkins Salinas, CA 10041 1:00:36 19:31 M 45-49/31 M-47 295 1:01:15 23.77%
721 Nancy Cole Santa Barbara, CA 9673 1:00:45 19:33 F 70-74/5 F-70 426 1:01:28 37.10%
722 Kelly Cole-Smith Santa Barbara, CA 9750 1:00:47 19:34 F 45-49/39 F-46 427 1:01:28 26.55%
723 Shelby Hughes San Francisco, CA 9881 1:00:59 19:38 F 25-29/58 F-27 428 1:01:18 24.28%
724 Megan Matheny Sacramento, CA 9855 1:01:00 19:38 F 25-29/59 F-27 429 1:01:19 24.27%
725 Janet Keegan Modesto, CA 9805 1:01:01 19:39 F 65-69/12 F-68 430 1:01:29 35.77%
726 Tara Vikjord Soledad, CA 9802 1:01:02 19:39 F 35-39/47 F-37 431 1:01:28 24.72%
727 David Leyva Greenfield, CA 10271 1:01:26 19:47 M 50-54/35 M-53 296 1:03:58 24.61%
728 Maria Leyva Greenfield, CA 10270 1:01:29 19:48 F 50-54/31 F-51 432 1:03:58 27.87%
729 Imelda Elizondo Arnold, CA 10230 1:01:34 19:49 F 50-54/32 F-53 433 1:01:34 28.57%
730 Ingeborg Klein El Paso, TX 9530 1:01:39 19:51 F 65-69/13 F-69 434 1:02:03 35.96%
731 Troy Hartman Salinas, CA 9847 1:01:59 19:57 M 30-34/23 M-34 297 1:02:37 21.17%
732 Cara Hartman Salinas, CA 9846 1:01:59 19:57 F 30-34/60 F-31 435 1:02:38 23.91%
733 Zachary Brush Salinas, CA 9845 1:01:59 19:58 M 40-44/24 M-44 298 1:02:37 22.70%
734 Julia Brush Salinas, CA 9826 1:02:00 19:58 F 55-59/32 F-57 436 1:02:37 29.90%
735 Terra Wood-Taylor San Jose, CA 10015 1:02:05 19:59 F 25-29/60 F-29 437 1:02:05 23.85%
736 John Ameser Costa Mesa, CA 9799 1:02:09 20:00 M 50-54/36 M-52 299 1:02:09 24.11%
737 Theresa Ezaki Sacramento, CA 9724 1:03:26 20:25 F 50-54/33 F-51 438 1:04:12 27.02%
738 Karen Ramos Martinez, CA 9723 1:03:27 20:26 F 55-59/33 F-59 439 1:04:14 30.03%
739 Leean Dessaussois Sacramento, CA 9888 1:03:48 20:32 F 45-49/40 F-49 440 1:04:34 26.21%
740 Margaret Cook Schulte Oakland, CA 9762 1:04:00 20:36 F 65-69/14 F-67 441 1:04:53 33.55%
741 Stephen Schulte Oakland, CA 9761 1:04:19 20:42 M 08-11/18 M-9 300 1:05:10 25.43%
742 Carol Seril Plano, TX 9534 1:04:41 20:50 F 45-49/41 F-48 442 1:04:56 25.54%
743 Anthony Albano Monterey, CA 9532 1:04:44 20:51 M 55-59/28 M-55 301 1:04:59 23.74%
744 Patricia Albano Monterey, CA 9531 1:04:59 20:55 F 65-69/15 F-69 443 1:05:13 34.12%
745 Luz Maria Solis Salinas, CA 9565 1:05:15 21:01 F 45-49/42 F-47 444 1:06:00 25.01%
746 John Flores Seaside, CA 10050 1:05:21 21:02 M 40-44/25 M-44 302 1:09:53 21.53%
747 Cornelius Wright Marina, CA 9705 1:05:22 21:03 M 45-49/32 M-46 303 1:09:53 21.86%
748 Benjamin Richards Carmel, CA 10204 1:05:25 21:04 M 80-84/1 M-80 304 1:11:52 32.14%
749 Theresa Wright Marina, CA 9703 1:05:33 21:06 F 55-59/34 F-56 445 1:09:51 27.90%
750 Larry Pannell Colorado Springs, CO 10046 1:05:42 21:09 M 45-49/33 M-49 305 1:06:03 22.28%
751 Andrew Pannell Tulsa, OK 10168 1:05:43 21:09 M 75-79/7 M-77 306 1:06:06 29.93%
752 Lori Fitzmaurice Los Gatos, CA 9599 1:06:02 21:16 F 45-49/43 F-46 446 1:06:43 24.44%
753 Terri Fitzmaurice Felton, CA 9649 1:06:03 21:16 F 55-59/35 F-57 447 1:06:43 28.07%
754 James Polis Pleasanton, CA 10258 1:06:37 21:27 M 45-49/34 M-48 307 1:07:30 21.80%
755 Renee Lapachet Sacramento, CA 10605 1:07:26 21:43 F 50-54/34 F-54 448 1:08:00 26.40%
756 Pamela Fyfe Brookdale, CA 9726 1:07:39 21:47 F 60-64/24 F-63 449 1:08:11 29.84%
757 Maidi Sherwood Aptos, CA 9735 1:07:39 21:47 F 60-64/25 F-60 450 1:08:11 28.59%
758 Tom Sherwood Aptos, CA 9736 1:07:40 21:47 M 60-64/13 M-61 308 1:08:10 23.92%
759 Helen Alexander Seaside, CA 10012 1:08:42 22:07 F 60-64/26 F-63 451 1:08:52 29.39%
760 Carrie Giles Salt Lake City, UT 10254 1:09:11 22:16 F 25-29/61 F-26 452 1:09:55 21.40%
761 Gerry Montgomery Carmel Valley, CA 10091 1:09:11 22:17 M 65-69/14 M-66 309 1:09:55 24.48%
762 Anne Bluth Davenport, IA 9546 1:09:50 22:29 F 70-74/6 F-73 453 1:10:29 33.97%
763 Chrystal Taylor Bellflower, CA 9955 1:09:58 22:32 F 50-54/35 F-53 454 1:10:20 25.14%
764 Charley Hellums Evergreen, CO 10183 1:10:36 22:44 F 08-11/20 F-8 455 1:11:41 25.67%
765 Yvette Woltman Royse City, TX 10185 1:10:38 22:44 F 40-44/45 F-42 456 1:11:43 22.02%
766 Donald Thibodo Los Osos, CA 9653 1:10:39 22:45 M 75-79/8 M-79 310 1:12:25 29.07%
767 Montie McGinty Evergreen, CO 9664 1:10:39 22:45 F 60-64/27 F-64 457 1:11:43 29.02%
768 Flaviana Chelliah Santa Clara, CA 10235 1:11:30 23:01 F 35-39/48 F-38 458 1:11:48 21.19%
769 Ashley Kilian Aptos, CA 10036 1:12:06 23:13 F 30-34/61 F-30 459 1:12:15 20.53%
770 Anneka Scranton Los Osos, CA 9652 1:12:25 23:19 F 55-59/36 F-58 460 1:12:25 25.97%
771 Louis Thomas Stockton, CA 9519 1:13:00 23:30 M 90-99/1 M-91 311 1:13:33 43.07%
772 Lynn Thomas Stockton, CA 9520 1:13:00 23:30 F 55-59/37 F-58 461 1:13:33 25.76%
773 Judith Johnson Santa Cruz, CA 9557 1:16:01 24:28 F 65-69/16 F-68 462 1:16:19 28.71%
774 Kathy Little Carmel Valley, CA 9696 1:17:26 24:56 F 55-59/38 F-58 463 1:18:24 24.28%
775 Jerome Politzer Carmel, CA 12026 1:23:16 26:48 M 50-54/37 M-52 312 1:29:07 18.00%
776 Diane Stone Pebble Beach, CA 10221 1:26:09 27:44 F 70-74/7 F-72 464 1:26:24 27.07%
777 Stephen Scott Boston, MA 9771 1:40:23 32:19 M 35-39/24 M-35 313 1:40:36 13.14%
778 Mary Nguyen Morgan Hill, CA 10135 1:42:32 33:00 F 30-34/62 F-33 465 1:48:23 14.50%
779 Tamara Bonfante Morgan Hill, CA 10136 1:42:33 33:01 F 45-49/44 F-47 466 1:48:23 15.91%
780 Jessie Savinon Spreckels, CA 10160 1:51:59 36:03 M 15-18/9 M-18 314 1:53:01 11.91%
781 Carla Ralph Fairfield, CA 11216 1:56:23 37:28 F 50-54/36 F-50 467 2:02:47 14.54%
782 Cynthia Kilian Aptos, CA 10035 1:59:25 38:27 F 60-64/28 F-61 468 2:05:16 16.41%
783 Lisa Burmood Travis Afb, CA 11609 1:59:31 38:28 F 35-39/49 F-37 469 2:05:54 12.62%
784 Elena Desalvo San Jose, CA 10208 2:07:06 40:55 F 45-49/45 F-45 470 2:07:59 12.56%
785 Nancy Sherrod Santa Cruz, CA 11981 2:15:51 43:44 F 60-64/29 F-62 471 2:15:51 14.65%
786 Patrice Keet Santa Cruz, CA 11959 2:15:51 43:44 F 60-64/30 F-62 472 2:15:51 14.65%
787 Christina Mesa Stanford, CA 11896 2:19:05 44:46 F 50-54/37 F-50 473 2:26:25 12.16%
788 Nancy Gough Truckee, CA 9694 2:29:47 48:13 F 85-89/1 F-86 474 2:30:46 21.82%
789 Naomi Sichak Seaside, CA 9815 2:30:39 48:30 F 60-64/31 F-60 475 2:32:20 12.83%
790 Bonnie Levine Los Angeles, CA 9833 2:38:59 51:11 F 60-64/32 F-64 476 2:44:57 12.90%
791 Tina George Arcata, CA 9717 2:42:43 52:23 F 45-49/46 F-46 477 2:43:01 9.92%
792 Julie Valentine Sunnyvale, CA 10037 2:58:19 57:24 F 40-44/46 F-41 478 3:04:18 8.66%
793 Heidianna Brown Shelton, WA 10174 3:03:23 59:02 F 35-39/50 F-39 479 3:10:01 8.31%
794 Melissa Cleary San Diego, CA 9672 4:15:56 1:22:23 F 50-54/38 F-51 480 4:15:56 6.69%
Place Name Location Bib Net Time Pace Division/Place Sex-Age Sex-Place Gun Time Age Grade